﻿<?xml version="1.0" encoding="UTF-8" standalone="no" ?>
<gpx xmlns="http://www.topografix.com/GPX/1/1" creator="CompeGPS" version="1.1" xmlns:xsi="http://www.w3.org/2001/XMLSchema-instance" xsi:schemaLocation="http://www.topografix.com/GPX/1/1 http://www.topografix.com/GPX/1/1/gpx.xsd http://www.garmin.com/xmlschemas/GpxExtensions/v3 http://www.garmin.com/xmlschemas/GpxExtensionsv3.xsd http://www.garmin.com/xmlschemas/TrackPointExtension/v1 http://www.garmin.com/xmlschemas/TrackPointExtensionv1.xsd" xmlns:gpxtpx="http://www.garmin.com/xmlschemas/TrackPointExtension/v1">
  <metadata>
    <link href="http://www.compegps.com">
      <text>CompeGPS TEAM, SL</text>
    </link>
    <time>2012-12-28T07:55:06Z</time>
    <bounds maxlat="42.718420" maxlon="1.971018" minlat="42.687000" minlon="1.931801"/>
  </metadata>
<wpt lat="42.718420" lon="1.931800">
<ele>1330</ele>
<name>Depart Montmija</name>
</wpt>
<wpt lat="42.712639" lon="1.942343">
<ele>1380</ele>
<name>Ruisseau Llongaynous</name>
</wpt>
<wpt lat="42.697850" lon="1.958070">
<ele>1700</ele>
<name>Jasse de Gabensa</name>
</wpt>
<wpt lat="42.687248" lon="1.969002">
<ele>2078</ele>
<name>Col 2078m</name>
</wpt>
<wpt lat="42.687528" lon="1.971018">
<ele>2121</ele>
<name>Col de l Egue</name>
</wpt>
<wpt lat="42.689361" lon="1.960679">
<ele>2060</ele>
<name>Fin parcours crete</name>
</wpt>
<wpt lat="42.695044" lon="1.960683">
<ele>1773</ele>
<name>Cote 1773</name>
</wpt>
  <trk>
    <name>Sarrat de Casalins</name>
    <trkseg>
      <trkpt lat="42.718420" lon="1.931800">
        <ele>1347.9</ele>
        <time>2012-12-27T08:25:03Z</time>
        <name>Depart Montmija</name>
      </trkpt>
      <trkpt lat="42.718365" lon="1.931800">
        <ele>1348.4</ele>
        <time>2012-12-27T08:26:52Z</time>
      </trkpt>
      <trkpt lat="42.718298" lon="1.931836">
        <ele>1347.4</ele>
        <time>2012-12-27T08:28:21Z</time>
      </trkpt>
      <trkpt lat="42.718213" lon="1.931899">
        <ele>1345.0</ele>
        <time>2012-12-27T08:28:34Z</time>
      </trkpt>
      <trkpt lat="42.718158" lon="1.932017">
        <ele>1343.1</ele>
        <time>2012-12-27T08:29:16Z</time>
      </trkpt>
      <trkpt lat="42.718127" lon="1.932159">
        <ele>1341.7</ele>
        <time>2012-12-27T08:29:33Z</time>
      </trkpt>
      <trkpt lat="42.718046" lon="1.932239">
        <ele>1339.2</ele>
        <time>2012-12-27T08:29:47Z</time>
      </trkpt>
      <trkpt lat="42.717978" lon="1.932361">
        <ele>1336.4</ele>
        <time>2012-12-27T08:30:00Z</time>
      </trkpt>
      <trkpt lat="42.717970" lon="1.932465">
        <ele>1332.5</ele>
        <time>2012-12-27T08:30:12Z</time>
      </trkpt>
      <trkpt lat="42.717997" lon="1.932581">
        <ele>1330.1</ele>
        <time>2012-12-27T08:30:23Z</time>
      </trkpt>
      <trkpt lat="42.718027" lon="1.932687">
        <ele>1329.6</ele>
        <time>2012-12-27T08:30:34Z</time>
      </trkpt>
      <trkpt lat="42.717935" lon="1.932732">
        <ele>1328.7</ele>
        <time>2012-12-27T08:30:47Z</time>
      </trkpt>
      <trkpt lat="42.717863" lon="1.932804">
        <ele>1329.2</ele>
        <time>2012-12-27T08:30:58Z</time>
      </trkpt>
      <trkpt lat="42.717813" lon="1.932926">
        <ele>1329.6</ele>
        <time>2012-12-27T08:31:17Z</time>
      </trkpt>
      <trkpt lat="42.717756" lon="1.933038">
        <ele>1329.6</ele>
        <time>2012-12-27T08:31:30Z</time>
      </trkpt>
      <trkpt lat="42.717690" lon="1.933173">
        <ele>1329.2</ele>
        <time>2012-12-27T08:31:46Z</time>
      </trkpt>
      <trkpt lat="42.717632" lon="1.933281">
        <ele>1329.2</ele>
        <time>2012-12-27T08:31:57Z</time>
      </trkpt>
      <trkpt lat="42.717573" lon="1.933393">
        <ele>1329.6</ele>
        <time>2012-12-27T08:32:08Z</time>
      </trkpt>
      <trkpt lat="42.717508" lon="1.933505">
        <ele>1330.6</ele>
        <time>2012-12-27T08:32:19Z</time>
      </trkpt>
      <trkpt lat="42.717433" lon="1.933618">
        <ele>1330.6</ele>
        <time>2012-12-27T08:32:29Z</time>
      </trkpt>
      <trkpt lat="42.717365" lon="1.933716">
        <ele>1331.1</ele>
        <time>2012-12-27T08:32:40Z</time>
      </trkpt>
      <trkpt lat="42.717303" lon="1.933833">
        <ele>1331.6</ele>
        <time>2012-12-27T08:32:51Z</time>
      </trkpt>
      <trkpt lat="42.717284" lon="1.933977">
        <ele>1332.5</ele>
        <time>2012-12-27T08:33:02Z</time>
      </trkpt>
      <trkpt lat="42.717312" lon="1.934079">
        <ele>1334.0</ele>
        <time>2012-12-27T08:33:15Z</time>
      </trkpt>
      <trkpt lat="42.717318" lon="1.934208">
        <ele>1335.9</ele>
        <time>2012-12-27T08:33:28Z</time>
      </trkpt>
      <trkpt lat="42.717324" lon="1.934354">
        <ele>1336.8</ele>
        <time>2012-12-27T08:33:40Z</time>
      </trkpt>
      <trkpt lat="42.717328" lon="1.934478">
        <ele>1337.8</ele>
        <time>2012-12-27T08:33:50Z</time>
      </trkpt>
      <trkpt lat="42.717280" lon="1.934612">
        <ele>1339.2</ele>
        <time>2012-12-27T08:34:03Z</time>
      </trkpt>
      <trkpt lat="42.717227" lon="1.934735">
        <ele>1339.2</ele>
        <time>2012-12-27T08:34:13Z</time>
      </trkpt>
      <trkpt lat="42.717187" lon="1.934863">
        <ele>1340.2</ele>
        <time>2012-12-27T08:34:22Z</time>
      </trkpt>
      <trkpt lat="42.717128" lon="1.934972">
        <ele>1340.7</ele>
        <time>2012-12-27T08:34:32Z</time>
      </trkpt>
      <trkpt lat="42.717078" lon="1.935082">
        <ele>1340.7</ele>
        <time>2012-12-27T08:34:42Z</time>
      </trkpt>
      <trkpt lat="42.717019" lon="1.935193">
        <ele>1342.6</ele>
        <time>2012-12-27T08:34:53Z</time>
      </trkpt>
      <trkpt lat="42.716971" lon="1.935301">
        <ele>1343.6</ele>
        <time>2012-12-27T08:35:03Z</time>
      </trkpt>
      <trkpt lat="42.716935" lon="1.935433">
        <ele>1343.6</ele>
        <time>2012-12-27T08:35:14Z</time>
      </trkpt>
      <trkpt lat="42.716861" lon="1.935526">
        <ele>1344.5</ele>
        <time>2012-12-27T08:35:26Z</time>
      </trkpt>
      <trkpt lat="42.716800" lon="1.935636">
        <ele>1345.5</ele>
        <time>2012-12-27T08:35:37Z</time>
      </trkpt>
      <trkpt lat="42.716740" lon="1.935744">
        <ele>1346.9</ele>
        <time>2012-12-27T08:35:48Z</time>
      </trkpt>
      <trkpt lat="42.716661" lon="1.935837">
        <ele>1347.9</ele>
        <time>2012-12-27T08:35:59Z</time>
      </trkpt>
      <trkpt lat="42.716561" lon="1.935937">
        <ele>1348.9</ele>
        <time>2012-12-27T08:36:11Z</time>
      </trkpt>
      <trkpt lat="42.716487" lon="1.936031">
        <ele>1350.3</ele>
        <time>2012-12-27T08:36:23Z</time>
      </trkpt>
      <trkpt lat="42.716419" lon="1.936136">
        <ele>1350.8</ele>
        <time>2012-12-27T08:36:34Z</time>
      </trkpt>
      <trkpt lat="42.716352" lon="1.936250">
        <ele>1351.8</ele>
        <time>2012-12-27T08:36:44Z</time>
      </trkpt>
      <trkpt lat="42.716299" lon="1.936366">
        <ele>1352.7</ele>
        <time>2012-12-27T08:36:57Z</time>
      </trkpt>
      <trkpt lat="42.716258" lon="1.936493">
        <ele>1353.2</ele>
        <time>2012-12-27T08:37:08Z</time>
      </trkpt>
      <trkpt lat="42.716217" lon="1.936626">
        <ele>1354.2</ele>
        <time>2012-12-27T08:37:17Z</time>
      </trkpt>
      <trkpt lat="42.716166" lon="1.936763">
        <ele>1354.6</ele>
        <time>2012-12-27T08:37:27Z</time>
      </trkpt>
      <trkpt lat="42.716095" lon="1.936895">
        <ele>1354.6</ele>
        <time>2012-12-27T08:37:37Z</time>
      </trkpt>
      <trkpt lat="42.716034" lon="1.937008">
        <ele>1355.6</ele>
        <time>2012-12-27T08:37:47Z</time>
      </trkpt>
      <trkpt lat="42.715983" lon="1.937132">
        <ele>1356.6</ele>
        <time>2012-12-27T08:37:57Z</time>
      </trkpt>
      <trkpt lat="42.715908" lon="1.937243">
        <ele>1357.5</ele>
        <time>2012-12-27T08:38:12Z</time>
      </trkpt>
      <trkpt lat="42.715854" lon="1.937348">
        <ele>1358.0</ele>
        <time>2012-12-27T08:38:23Z</time>
      </trkpt>
      <trkpt lat="42.715780" lon="1.937445">
        <ele>1358.5</ele>
        <time>2012-12-27T08:38:34Z</time>
      </trkpt>
      <trkpt lat="42.715725" lon="1.937569">
        <ele>1359.0</ele>
        <time>2012-12-27T08:38:45Z</time>
      </trkpt>
      <trkpt lat="42.715635" lon="1.937672">
        <ele>1359.4</ele>
        <time>2012-12-27T08:38:56Z</time>
      </trkpt>
      <trkpt lat="42.715553" lon="1.937817">
        <ele>1359.4</ele>
        <time>2012-12-27T08:39:08Z</time>
      </trkpt>
      <trkpt lat="42.715475" lon="1.937931">
        <ele>1360.4</ele>
        <time>2012-12-27T08:39:19Z</time>
      </trkpt>
      <trkpt lat="42.715414" lon="1.938064">
        <ele>1360.4</ele>
        <time>2012-12-27T08:39:29Z</time>
      </trkpt>
      <trkpt lat="42.715356" lon="1.938201">
        <ele>1360.9</ele>
        <time>2012-12-27T08:39:40Z</time>
      </trkpt>
      <trkpt lat="42.715317" lon="1.938325">
        <ele>1360.9</ele>
        <time>2012-12-27T08:39:48Z</time>
      </trkpt>
      <trkpt lat="42.715257" lon="1.938436">
        <ele>1360.9</ele>
        <time>2012-12-27T08:39:57Z</time>
      </trkpt>
      <trkpt lat="42.715197" lon="1.938554">
        <ele>1360.9</ele>
        <time>2012-12-27T08:40:07Z</time>
      </trkpt>
      <trkpt lat="42.715150" lon="1.938683">
        <ele>1360.9</ele>
        <time>2012-12-27T08:40:16Z</time>
      </trkpt>
      <trkpt lat="42.715107" lon="1.938810">
        <ele>1360.9</ele>
        <time>2012-12-27T08:40:25Z</time>
      </trkpt>
      <trkpt lat="42.715060" lon="1.938939">
        <ele>1361.4</ele>
        <time>2012-12-27T08:40:34Z</time>
      </trkpt>
      <trkpt lat="42.715004" lon="1.939068">
        <ele>1361.8</ele>
        <time>2012-12-27T08:40:44Z</time>
      </trkpt>
      <trkpt lat="42.714925" lon="1.939186">
        <ele>1362.3</ele>
        <time>2012-12-27T08:40:54Z</time>
      </trkpt>
      <trkpt lat="42.714857" lon="1.939310">
        <ele>1362.8</ele>
        <time>2012-12-27T08:41:04Z</time>
      </trkpt>
      <trkpt lat="42.714796" lon="1.939428">
        <ele>1363.8</ele>
        <time>2012-12-27T08:41:14Z</time>
      </trkpt>
      <trkpt lat="42.714739" lon="1.939577">
        <ele>1364.7</ele>
        <time>2012-12-27T08:41:25Z</time>
      </trkpt>
      <trkpt lat="42.714682" lon="1.939711">
        <ele>1365.7</ele>
        <time>2012-12-27T08:41:36Z</time>
      </trkpt>
      <trkpt lat="42.714644" lon="1.939851">
        <ele>1367.1</ele>
        <time>2012-12-27T08:41:47Z</time>
      </trkpt>
      <trkpt lat="42.714598" lon="1.939987">
        <ele>1369.1</ele>
        <time>2012-12-27T08:41:58Z</time>
      </trkpt>
      <trkpt lat="42.714567" lon="1.940138">
        <ele>1369.5</ele>
        <time>2012-12-27T08:42:09Z</time>
      </trkpt>
      <trkpt lat="42.714508" lon="1.940277">
        <ele>1371.0</ele>
        <time>2012-12-27T08:42:19Z</time>
      </trkpt>
      <trkpt lat="42.714444" lon="1.940401">
        <ele>1371.9</ele>
        <time>2012-12-27T08:42:30Z</time>
      </trkpt>
      <trkpt lat="42.714365" lon="1.940509">
        <ele>1372.4</ele>
        <time>2012-12-27T08:42:41Z</time>
      </trkpt>
      <trkpt lat="42.714290" lon="1.940611">
        <ele>1373.4</ele>
        <time>2012-12-27T08:42:50Z</time>
      </trkpt>
      <trkpt lat="42.714218" lon="1.940735">
        <ele>1373.9</ele>
        <time>2012-12-27T08:42:59Z</time>
      </trkpt>
      <trkpt lat="42.714138" lon="1.940844">
        <ele>1375.3</ele>
        <time>2012-12-27T08:43:08Z</time>
      </trkpt>
      <trkpt lat="42.714037" lon="1.940965">
        <ele>1376.3</ele>
        <time>2012-12-27T08:43:20Z</time>
      </trkpt>
      <trkpt lat="42.713942" lon="1.941012">
        <ele>1377.2</ele>
        <time>2012-12-27T08:43:30Z</time>
      </trkpt>
      <trkpt lat="42.713837" lon="1.941045">
        <ele>1378.7</ele>
        <time>2012-12-27T08:43:40Z</time>
      </trkpt>
      <trkpt lat="42.713744" lon="1.941102">
        <ele>1379.6</ele>
        <time>2012-12-27T08:43:51Z</time>
      </trkpt>
      <trkpt lat="42.713651" lon="1.941155">
        <ele>1379.2</ele>
        <time>2012-12-27T08:44:01Z</time>
      </trkpt>
      <trkpt lat="42.713566" lon="1.941269">
        <ele>1380.1</ele>
        <time>2012-12-27T08:44:11Z</time>
      </trkpt>
      <trkpt lat="42.713487" lon="1.941379">
        <ele>1381.1</ele>
        <time>2012-12-27T08:44:22Z</time>
      </trkpt>
      <trkpt lat="42.713396" lon="1.941455">
        <ele>1381.6</ele>
        <time>2012-12-27T08:44:32Z</time>
      </trkpt>
      <trkpt lat="42.713322" lon="1.941541">
        <ele>1381.6</ele>
        <time>2012-12-27T08:44:43Z</time>
      </trkpt>
      <trkpt lat="42.713200" lon="1.941640">
        <ele>1382.0</ele>
        <time>2012-12-27T08:44:53Z</time>
      </trkpt>
      <trkpt lat="42.713119" lon="1.941764">
        <ele>1382.5</ele>
        <time>2012-12-27T08:45:03Z</time>
      </trkpt>
      <trkpt lat="42.713049" lon="1.941870">
        <ele>1382.0</ele>
        <time>2012-12-27T08:45:13Z</time>
      </trkpt>
      <trkpt lat="42.712990" lon="1.942007">
        <ele>1382.0</ele>
        <time>2012-12-27T08:45:23Z</time>
      </trkpt>
      <trkpt lat="42.712904" lon="1.942123">
        <ele>1381.6</ele>
        <time>2012-12-27T08:45:32Z</time>
      </trkpt>
      <trkpt lat="42.712828" lon="1.942231">
        <ele>1381.1</ele>
        <time>2012-12-27T08:45:41Z</time>
      </trkpt>
      <trkpt lat="42.712746" lon="1.942321">
        <ele>1381.1</ele>
        <time>2012-12-27T08:45:51Z</time>
      </trkpt>
      <trkpt lat="42.712639" lon="1.942343">
        <ele>1380.1</ele>
        <time>2012-12-27T08:46:07Z</time>
        <name>Ruisseau Llongaynous</name>
      </trkpt>
      <trkpt lat="42.712573" lon="1.942468">
        <ele>1382.0</ele>
        <time>2012-12-27T08:46:19Z</time>
      </trkpt>
      <trkpt lat="42.712478" lon="1.942534">
        <ele>1382.5</ele>
        <time>2012-12-27T08:46:29Z</time>
      </trkpt>
      <trkpt lat="42.712398" lon="1.942648">
        <ele>1382.5</ele>
        <time>2012-12-27T08:46:39Z</time>
      </trkpt>
      <trkpt lat="42.712333" lon="1.942787">
        <ele>1384.0</ele>
        <time>2012-12-27T08:46:49Z</time>
      </trkpt>
      <trkpt lat="42.712296" lon="1.942919">
        <ele>1384.4</ele>
        <time>2012-12-27T08:46:59Z</time>
      </trkpt>
      <trkpt lat="42.712253" lon="1.943033">
        <ele>1384.0</ele>
        <time>2012-12-27T08:47:07Z</time>
      </trkpt>
      <trkpt lat="42.712205" lon="1.943169">
        <ele>1384.4</ele>
        <time>2012-12-27T08:47:17Z</time>
      </trkpt>
      <trkpt lat="42.712129" lon="1.943264">
        <ele>1384.4</ele>
        <time>2012-12-27T08:47:27Z</time>
      </trkpt>
      <trkpt lat="42.712075" lon="1.943402">
        <ele>1384.9</ele>
        <time>2012-12-27T08:47:37Z</time>
      </trkpt>
      <trkpt lat="42.712000" lon="1.943510">
        <ele>1384.0</ele>
        <time>2012-12-27T08:47:56Z</time>
      </trkpt>
      <trkpt lat="42.711953" lon="1.943624">
        <ele>1384.9</ele>
        <time>2012-12-27T08:48:06Z</time>
      </trkpt>
      <trkpt lat="42.711882" lon="1.943736">
        <ele>1385.9</ele>
        <time>2012-12-27T08:48:16Z</time>
      </trkpt>
      <trkpt lat="42.711867" lon="1.943887">
        <ele>1388.3</ele>
        <time>2012-12-27T08:48:29Z</time>
      </trkpt>
      <trkpt lat="42.711775" lon="1.943991">
        <ele>1387.8</ele>
        <time>2012-12-27T08:48:40Z</time>
      </trkpt>
      <trkpt lat="42.711681" lon="1.944048">
        <ele>1389.2</ele>
        <time>2012-12-27T08:48:51Z</time>
      </trkpt>
      <trkpt lat="42.711606" lon="1.944141">
        <ele>1390.2</ele>
        <time>2012-12-27T08:49:01Z</time>
      </trkpt>
      <trkpt lat="42.711534" lon="1.944196">
        <ele>1390.7</ele>
        <time>2012-12-27T08:49:12Z</time>
      </trkpt>
      <trkpt lat="42.711483" lon="1.944316">
        <ele>1392.1</ele>
        <time>2012-12-27T08:49:23Z</time>
      </trkpt>
      <trkpt lat="42.711401" lon="1.944387">
        <ele>1392.6</ele>
        <time>2012-12-27T08:49:32Z</time>
      </trkpt>
      <trkpt lat="42.711365" lon="1.944515">
        <ele>1394.1</ele>
        <time>2012-12-27T08:49:43Z</time>
      </trkpt>
      <trkpt lat="42.711352" lon="1.944650">
        <ele>1396.0</ele>
        <time>2012-12-27T08:49:54Z</time>
      </trkpt>
      <trkpt lat="42.711318" lon="1.944766">
        <ele>1397.9</ele>
        <time>2012-12-27T08:50:08Z</time>
      </trkpt>
      <trkpt lat="42.711275" lon="1.944874">
        <ele>1399.8</ele>
        <time>2012-12-27T08:50:21Z</time>
      </trkpt>
      <trkpt lat="42.711194" lon="1.944948">
        <ele>1402.2</ele>
        <time>2012-12-27T08:50:34Z</time>
      </trkpt>
      <trkpt lat="42.711183" lon="1.945097">
        <ele>1404.6</ele>
        <time>2012-12-27T08:50:48Z</time>
      </trkpt>
      <trkpt lat="42.711092" lon="1.945172">
        <ele>1406.1</ele>
        <time>2012-12-27T08:51:01Z</time>
      </trkpt>
      <trkpt lat="42.710992" lon="1.945205">
        <ele>1407.5</ele>
        <time>2012-12-27T08:51:12Z</time>
      </trkpt>
      <trkpt lat="42.710898" lon="1.945266">
        <ele>1408.9</ele>
        <time>2012-12-27T08:51:24Z</time>
      </trkpt>
      <trkpt lat="42.710827" lon="1.945378">
        <ele>1409.9</ele>
        <time>2012-12-27T08:51:37Z</time>
      </trkpt>
      <trkpt lat="42.710752" lon="1.945474">
        <ele>1410.9</ele>
        <time>2012-12-27T08:51:47Z</time>
      </trkpt>
      <trkpt lat="42.710674" lon="1.945640">
        <ele>1412.8</ele>
        <time>2012-12-27T08:54:33Z</time>
      </trkpt>
      <trkpt lat="42.710491" lon="1.945762">
        <ele>1412.8</ele>
        <time>2012-12-27T08:55:00Z</time>
      </trkpt>
      <trkpt lat="42.710388" lon="1.945814">
        <ele>1411.8</ele>
        <time>2012-12-27T08:55:23Z</time>
      </trkpt>
      <trkpt lat="42.710222" lon="1.945900">
        <ele>1411.8</ele>
        <time>2012-12-27T08:55:46Z</time>
      </trkpt>
      <trkpt lat="42.710147" lon="1.945998">
        <ele>1413.3</ele>
        <time>2012-12-27T08:56:24Z</time>
      </trkpt>
      <trkpt lat="42.710084" lon="1.946052">
        <ele>1416.2</ele>
        <time>2012-12-27T08:56:49Z</time>
      </trkpt>
      <trkpt lat="42.709994" lon="1.946077">
        <ele>1416.2</ele>
        <time>2012-12-27T08:57:02Z</time>
      </trkpt>
      <trkpt lat="42.709948" lon="1.946199">
        <ele>1417.6</ele>
        <time>2012-12-27T08:57:18Z</time>
      </trkpt>
      <trkpt lat="42.709878" lon="1.946303">
        <ele>1419.0</ele>
        <time>2012-12-27T08:57:33Z</time>
      </trkpt>
      <trkpt lat="42.709799" lon="1.946414">
        <ele>1421.0</ele>
        <time>2012-12-27T08:57:46Z</time>
      </trkpt>
      <trkpt lat="42.709727" lon="1.946541">
        <ele>1422.9</ele>
        <time>2012-12-27T08:58:02Z</time>
      </trkpt>
      <trkpt lat="42.709657" lon="1.946612">
        <ele>1424.3</ele>
        <time>2012-12-27T08:58:15Z</time>
      </trkpt>
      <trkpt lat="42.709625" lon="1.946728">
        <ele>1427.7</ele>
        <time>2012-12-27T08:58:28Z</time>
      </trkpt>
      <trkpt lat="42.709524" lon="1.946780">
        <ele>1430.6</ele>
        <time>2012-12-27T08:58:44Z</time>
      </trkpt>
      <trkpt lat="42.709382" lon="1.946875">
        <ele>1433.5</ele>
        <time>2012-12-27T08:59:03Z</time>
      </trkpt>
      <trkpt lat="42.709262" lon="1.946943">
        <ele>1434.9</ele>
        <time>2012-12-27T08:59:17Z</time>
      </trkpt>
      <trkpt lat="42.709146" lon="1.946988">
        <ele>1435.9</ele>
        <time>2012-12-27T08:59:38Z</time>
      </trkpt>
      <trkpt lat="42.709092" lon="1.947085">
        <ele>1437.8</ele>
        <time>2012-12-27T09:00:00Z</time>
      </trkpt>
      <trkpt lat="42.709010" lon="1.947164">
        <ele>1439.7</ele>
        <time>2012-12-27T09:00:17Z</time>
      </trkpt>
      <trkpt lat="42.708902" lon="1.947187">
        <ele>1441.2</ele>
        <time>2012-12-27T09:00:31Z</time>
      </trkpt>
      <trkpt lat="42.708782" lon="1.947165">
        <ele>1443.1</ele>
        <time>2012-12-27T09:01:12Z</time>
      </trkpt>
      <trkpt lat="42.708713" lon="1.947202">
        <ele>1445.0</ele>
        <time>2012-12-27T09:01:25Z</time>
      </trkpt>
      <trkpt lat="42.708666" lon="1.947322">
        <ele>1447.4</ele>
        <time>2012-12-27T09:01:36Z</time>
      </trkpt>
      <trkpt lat="42.708635" lon="1.947462">
        <ele>1449.3</ele>
        <time>2012-12-27T09:01:45Z</time>
      </trkpt>
      <trkpt lat="42.708580" lon="1.947589">
        <ele>1450.8</ele>
        <time>2012-12-27T09:01:55Z</time>
      </trkpt>
      <trkpt lat="42.708534" lon="1.947715">
        <ele>1452.2</ele>
        <time>2012-12-27T09:02:07Z</time>
      </trkpt>
      <trkpt lat="42.708502" lon="1.947844">
        <ele>1454.1</ele>
        <time>2012-12-27T09:02:17Z</time>
      </trkpt>
      <trkpt lat="42.708438" lon="1.947956">
        <ele>1455.1</ele>
        <time>2012-12-27T09:02:28Z</time>
      </trkpt>
      <trkpt lat="42.708371" lon="1.948076">
        <ele>1457.5</ele>
        <time>2012-12-27T09:02:40Z</time>
      </trkpt>
      <trkpt lat="42.708304" lon="1.948166">
        <ele>1457.5</ele>
        <time>2012-12-27T09:02:53Z</time>
      </trkpt>
      <trkpt lat="42.708238" lon="1.948267">
        <ele>1458.9</ele>
        <time>2012-12-27T09:03:06Z</time>
      </trkpt>
      <trkpt lat="42.708166" lon="1.948348">
        <ele>1462.3</ele>
        <time>2012-12-27T09:03:19Z</time>
      </trkpt>
      <trkpt lat="42.708113" lon="1.948462">
        <ele>1463.7</ele>
        <time>2012-12-27T09:03:31Z</time>
      </trkpt>
      <trkpt lat="42.708007" lon="1.948496">
        <ele>1465.2</ele>
        <time>2012-12-27T09:03:43Z</time>
      </trkpt>
      <trkpt lat="42.707893" lon="1.948537">
        <ele>1465.7</ele>
        <time>2012-12-27T09:03:58Z</time>
      </trkpt>
      <trkpt lat="42.707738" lon="1.948585">
        <ele>1467.6</ele>
        <time>2012-12-27T09:04:17Z</time>
      </trkpt>
      <trkpt lat="42.707609" lon="1.948707">
        <ele>1470.0</ele>
        <time>2012-12-27T09:04:36Z</time>
      </trkpt>
      <trkpt lat="42.707496" lon="1.948775">
        <ele>1471.9</ele>
        <time>2012-12-27T09:04:53Z</time>
      </trkpt>
      <trkpt lat="42.707375" lon="1.948880">
        <ele>1472.9</ele>
        <time>2012-12-27T09:05:10Z</time>
      </trkpt>
      <trkpt lat="42.707332" lon="1.949053">
        <ele>1476.7</ele>
        <time>2012-12-27T09:05:31Z</time>
      </trkpt>
      <trkpt lat="42.707276" lon="1.949138">
        <ele>1476.2</ele>
        <time>2012-12-27T09:06:14Z</time>
      </trkpt>
      <trkpt lat="42.707207" lon="1.949032">
        <ele>1472.9</ele>
        <time>2012-12-27T09:06:44Z</time>
      </trkpt>
      <trkpt lat="42.707069" lon="1.948951">
        <ele>1471.4</ele>
        <time>2012-12-27T09:07:26Z</time>
      </trkpt>
      <trkpt lat="42.706887" lon="1.949003">
        <ele>1472.4</ele>
        <time>2012-12-27T09:07:57Z</time>
      </trkpt>
      <trkpt lat="42.706787" lon="1.948963">
        <ele>1471.4</ele>
        <time>2012-12-27T09:09:01Z</time>
      </trkpt>
      <trkpt lat="42.706693" lon="1.949067">
        <ele>1473.4</ele>
        <time>2012-12-27T09:09:22Z</time>
      </trkpt>
      <trkpt lat="42.706550" lon="1.949193">
        <ele>1475.8</ele>
        <time>2012-12-27T09:09:43Z</time>
      </trkpt>
      <trkpt lat="42.706418" lon="1.949278">
        <ele>1477.2</ele>
        <time>2012-12-27T09:10:01Z</time>
      </trkpt>
      <trkpt lat="42.706272" lon="1.949326">
        <ele>1476.2</ele>
        <time>2012-12-27T09:10:15Z</time>
      </trkpt>
      <trkpt lat="42.706203" lon="1.949454">
        <ele>1476.2</ele>
        <time>2012-12-27T09:10:30Z</time>
      </trkpt>
      <trkpt lat="42.706038" lon="1.949527">
        <ele>1475.8</ele>
        <time>2012-12-27T09:10:49Z</time>
      </trkpt>
      <trkpt lat="42.705994" lon="1.949733">
        <ele>1498.7</ele>
        <time>2012-12-27T09:11:08Z</time>
      </trkpt>
      <trkpt lat="42.705931" lon="1.949954">
        <ele>1503.0</ele>
        <time>2012-12-27T09:11:26Z</time>
      </trkpt>
      <trkpt lat="42.705960" lon="1.950207">
        <ele>1508.8</ele>
        <time>2012-12-27T09:11:59Z</time>
      </trkpt>
      <trkpt lat="42.706029" lon="1.950467">
        <ele>1515.3</ele>
        <time>2012-12-27T09:13:38Z</time>
      </trkpt>
      <trkpt lat="42.706047" lon="1.950649">
        <ele>1519.2</ele>
        <time>2012-12-27T09:14:25Z</time>
      </trkpt>
      <trkpt lat="42.706041" lon="1.950799">
        <ele>1522.4</ele>
        <time>2012-12-27T09:15:41Z</time>
      </trkpt>
      <trkpt lat="42.705994" lon="1.950972">
        <ele>1526.4</ele>
        <time>2012-12-27T09:16:10Z</time>
      </trkpt>
      <trkpt lat="42.705942" lon="1.951099">
        <ele>1529.3</ele>
        <time>2012-12-27T09:16:31Z</time>
      </trkpt>
      <trkpt lat="42.705861" lon="1.951217">
        <ele>1531.0</ele>
        <time>2012-12-27T09:16:57Z</time>
      </trkpt>
      <trkpt lat="42.705780" lon="1.951351">
        <ele>1533.2</ele>
        <time>2012-12-27T09:17:55Z</time>
      </trkpt>
      <trkpt lat="42.705693" lon="1.951493">
        <ele>1535.6</ele>
        <time>2012-12-27T09:18:29Z</time>
      </trkpt>
      <trkpt lat="42.705629" lon="1.951714">
        <ele>1540.8</ele>
        <time>2012-12-27T09:19:19Z</time>
      </trkpt>
      <trkpt lat="42.705513" lon="1.951817">
        <ele>1542.0</ele>
        <time>2012-12-27T09:19:44Z</time>
      </trkpt>
      <trkpt lat="42.705438" lon="1.951959">
        <ele>1545.3</ele>
        <time>2012-12-27T09:20:08Z</time>
      </trkpt>
      <trkpt lat="42.705345" lon="1.952093">
        <ele>1547.1</ele>
        <time>2012-12-27T09:20:55Z</time>
      </trkpt>
      <trkpt lat="42.705200" lon="1.952164">
        <ele>1545.4</ele>
        <time>2012-12-27T09:24:32Z</time>
      </trkpt>
      <trkpt lat="42.705066" lon="1.952220">
        <ele>1542.9</ele>
        <time>2012-12-27T09:24:55Z</time>
      </trkpt>
      <trkpt lat="42.704950" lon="1.952251">
        <ele>1541.8</ele>
        <time>2012-12-27T09:25:17Z</time>
      </trkpt>
      <trkpt lat="42.704840" lon="1.952330">
        <ele>1543.7</ele>
        <time>2012-12-27T09:30:20Z</time>
      </trkpt>
      <trkpt lat="42.704701" lon="1.952448">
        <ele>1546.0</ele>
        <time>2012-12-27T09:30:40Z</time>
      </trkpt>
      <trkpt lat="42.704591" lon="1.952630">
        <ele>1551.3</ele>
        <time>2012-12-27T09:30:55Z</time>
      </trkpt>
      <trkpt lat="42.704504" lon="1.952717">
        <ele>1553.4</ele>
        <time>2012-12-27T09:31:11Z</time>
      </trkpt>
      <trkpt lat="42.704399" lon="1.952890">
        <ele>1558.8</ele>
        <time>2012-12-27T09:31:35Z</time>
      </trkpt>
      <trkpt lat="42.704347" lon="1.953040">
        <ele>1563.0</ele>
        <time>2012-12-27T09:31:56Z</time>
      </trkpt>
      <trkpt lat="42.704214" lon="1.953143">
        <ele>1564.6</ele>
        <time>2012-12-27T09:32:37Z</time>
      </trkpt>
      <trkpt lat="42.704144" lon="1.953230">
        <ele>1566.8</ele>
        <time>2012-12-27T09:33:11Z</time>
      </trkpt>
      <trkpt lat="42.703999" lon="1.953332">
        <ele>1569.4</ele>
        <time>2012-12-27T09:33:37Z</time>
      </trkpt>
      <trkpt lat="42.703930" lon="1.953482">
        <ele>1574.8</ele>
        <time>2012-12-27T09:34:19Z</time>
      </trkpt>
      <trkpt lat="42.703872" lon="1.953616">
        <ele>1579.6</ele>
        <time>2012-12-27T09:34:40Z</time>
      </trkpt>
      <trkpt lat="42.703808" lon="1.953695">
        <ele>1582.2</ele>
        <time>2012-12-27T09:37:25Z</time>
      </trkpt>
      <trkpt lat="42.703709" lon="1.953766">
        <ele>1584.4</ele>
        <time>2012-12-27T09:38:23Z</time>
      </trkpt>
      <trkpt lat="42.703558" lon="1.953853">
        <ele>1586.5</ele>
        <time>2012-12-27T09:39:47Z</time>
      </trkpt>
      <trkpt lat="42.703431" lon="1.953916">
        <ele>1587.2</ele>
        <time>2012-12-27T09:40:07Z</time>
      </trkpt>
      <trkpt lat="42.703309" lon="1.953987">
        <ele>1588.9</ele>
        <time>2012-12-27T09:40:24Z</time>
      </trkpt>
      <trkpt lat="42.703164" lon="1.954082">
        <ele>1591.5</ele>
        <time>2012-12-27T09:40:48Z</time>
      </trkpt>
      <trkpt lat="42.703042" lon="1.954106">
        <ele>1591.9</ele>
        <time>2012-12-27T09:41:02Z</time>
      </trkpt>
      <trkpt lat="42.702949" lon="1.954145">
        <ele>1592.5</ele>
        <time>2012-12-27T09:41:21Z</time>
      </trkpt>
      <trkpt lat="42.702895" lon="1.954144">
        <ele>1581.0</ele>
        <time>2012-12-27T09:42:04Z</time>
      </trkpt>
      <trkpt lat="42.702838" lon="1.954241">
        <ele>1583.9</ele>
        <time>2012-12-27T09:42:28Z</time>
      </trkpt>
      <trkpt lat="42.702748" lon="1.954254">
        <ele>1585.8</ele>
        <time>2012-12-27T09:42:44Z</time>
      </trkpt>
      <trkpt lat="42.702611" lon="1.954359">
        <ele>1588.7</ele>
        <time>2012-12-27T09:43:13Z</time>
      </trkpt>
      <trkpt lat="42.702447" lon="1.954496">
        <ele>1592.1</ele>
        <time>2012-12-27T09:43:36Z</time>
      </trkpt>
      <trkpt lat="42.702274" lon="1.954542">
        <ele>1592.6</ele>
        <time>2012-12-27T09:44:01Z</time>
      </trkpt>
      <trkpt lat="42.702068" lon="1.954592">
        <ele>1593.5</ele>
        <time>2012-12-27T09:44:25Z</time>
      </trkpt>
      <trkpt lat="42.701991" lon="1.954692">
        <ele>1595.9</ele>
        <time>2012-12-27T09:44:57Z</time>
      </trkpt>
      <trkpt lat="42.701893" lon="1.954718">
        <ele>1597.4</ele>
        <time>2012-12-27T09:48:05Z</time>
      </trkpt>
      <trkpt lat="42.701826" lon="1.954781">
        <ele>1599.8</ele>
        <time>2012-12-27T09:48:19Z</time>
      </trkpt>
      <trkpt lat="42.701750" lon="1.954805">
        <ele>1599.3</ele>
        <time>2012-12-27T09:48:34Z</time>
      </trkpt>
      <trkpt lat="42.701676" lon="1.954859">
        <ele>1601.2</ele>
        <time>2012-12-27T09:48:49Z</time>
      </trkpt>
      <trkpt lat="42.701569" lon="1.954880">
        <ele>1602.7</ele>
        <time>2012-12-27T09:49:03Z</time>
      </trkpt>
      <trkpt lat="42.701461" lon="1.954864">
        <ele>1603.6</ele>
        <time>2012-12-27T09:49:16Z</time>
      </trkpt>
      <trkpt lat="42.701360" lon="1.954818">
        <ele>1606.0</ele>
        <time>2012-12-27T09:49:29Z</time>
      </trkpt>
      <trkpt lat="42.701283" lon="1.954733">
        <ele>1605.5</ele>
        <time>2012-12-27T09:49:42Z</time>
      </trkpt>
      <trkpt lat="42.701161" lon="1.954740">
        <ele>1607.0</ele>
        <time>2012-12-27T09:49:56Z</time>
      </trkpt>
      <trkpt lat="42.701062" lon="1.954775">
        <ele>1609.9</ele>
        <time>2012-12-27T09:50:12Z</time>
      </trkpt>
      <trkpt lat="42.700992" lon="1.954893">
        <ele>1613.2</ele>
        <time>2012-12-27T09:50:35Z</time>
      </trkpt>
      <trkpt lat="42.700939" lon="1.955010">
        <ele>1617.1</ele>
        <time>2012-12-27T09:51:02Z</time>
      </trkpt>
      <trkpt lat="42.700794" lon="1.954985">
        <ele>1618.0</ele>
        <time>2012-12-27T09:51:58Z</time>
      </trkpt>
      <trkpt lat="42.700751" lon="1.955142">
        <ele>1621.9</ele>
        <time>2012-12-27T09:52:17Z</time>
      </trkpt>
      <trkpt lat="42.700679" lon="1.955214">
        <ele>1623.8</ele>
        <time>2012-12-27T09:52:34Z</time>
      </trkpt>
      <trkpt lat="42.700579" lon="1.955357">
        <ele>1625.7</ele>
        <time>2012-12-27T09:52:58Z</time>
      </trkpt>
      <trkpt lat="42.700528" lon="1.955473">
        <ele>1628.6</ele>
        <time>2012-12-27T09:53:16Z</time>
      </trkpt>
      <trkpt lat="42.700478" lon="1.955519">
        <ele>1630.1</ele>
        <time>2012-12-27T09:53:55Z</time>
      </trkpt>
      <trkpt lat="42.700371" lon="1.955580">
        <ele>1632.9</ele>
        <time>2012-12-27T09:54:12Z</time>
      </trkpt>
      <trkpt lat="42.700310" lon="1.955650">
        <ele>1634.4</ele>
        <time>2012-12-27T09:54:25Z</time>
      </trkpt>
      <trkpt lat="42.700236" lon="1.955750">
        <ele>1635.8</ele>
        <time>2012-12-27T09:54:37Z</time>
      </trkpt>
      <trkpt lat="42.700152" lon="1.955856">
        <ele>1637.3</ele>
        <time>2012-12-27T09:54:52Z</time>
      </trkpt>
      <trkpt lat="42.700082" lon="1.955969">
        <ele>1638.7</ele>
        <time>2012-12-27T09:55:05Z</time>
      </trkpt>
      <trkpt lat="42.700015" lon="1.956072">
        <ele>1639.2</ele>
        <time>2012-12-27T09:55:18Z</time>
      </trkpt>
      <trkpt lat="42.699934" lon="1.956156">
        <ele>1641.6</ele>
        <time>2012-12-27T09:55:30Z</time>
      </trkpt>
      <trkpt lat="42.699855" lon="1.956238">
        <ele>1643.0</ele>
        <time>2012-12-27T09:55:45Z</time>
      </trkpt>
      <trkpt lat="42.699792" lon="1.956317">
        <ele>1644.0</ele>
        <time>2012-12-27T09:55:59Z</time>
      </trkpt>
      <trkpt lat="42.699728" lon="1.956375">
        <ele>1646.4</ele>
        <time>2012-12-27T09:56:14Z</time>
      </trkpt>
      <trkpt lat="42.699635" lon="1.956450">
        <ele>1648.8</ele>
        <time>2012-12-27T09:56:31Z</time>
      </trkpt>
      <trkpt lat="42.699620" lon="1.956533">
        <ele>1649.8</ele>
        <time>2012-12-27T09:57:20Z</time>
      </trkpt>
      <trkpt lat="42.699527" lon="1.956621">
        <ele>1651.2</ele>
        <time>2012-12-27T09:57:33Z</time>
      </trkpt>
      <trkpt lat="42.699452" lon="1.956717">
        <ele>1653.6</ele>
        <time>2012-12-27T09:57:48Z</time>
      </trkpt>
      <trkpt lat="42.699364" lon="1.956783">
        <ele>1656.5</ele>
        <time>2012-12-27T09:58:02Z</time>
      </trkpt>
      <trkpt lat="42.699275" lon="1.956869">
        <ele>1658.4</ele>
        <time>2012-12-27T09:58:16Z</time>
      </trkpt>
      <trkpt lat="42.699198" lon="1.956964">
        <ele>1660.3</ele>
        <time>2012-12-27T09:58:29Z</time>
      </trkpt>
      <trkpt lat="42.699114" lon="1.957037">
        <ele>1662.3</ele>
        <time>2012-12-27T09:58:42Z</time>
      </trkpt>
      <trkpt lat="42.699050" lon="1.957116">
        <ele>1665.1</ele>
        <time>2012-12-27T09:58:56Z</time>
      </trkpt>
      <trkpt lat="42.698972" lon="1.957193">
        <ele>1668.0</ele>
        <time>2012-12-27T09:59:11Z</time>
      </trkpt>
      <trkpt lat="42.698882" lon="1.957278">
        <ele>1670.4</ele>
        <time>2012-12-27T09:59:27Z</time>
      </trkpt>
      <trkpt lat="42.698775" lon="1.957234">
        <ele>1670.9</ele>
        <time>2012-12-27T09:59:41Z</time>
      </trkpt>
      <trkpt lat="42.698663" lon="1.957243">
        <ele>1672.3</ele>
        <time>2012-12-27T09:59:56Z</time>
      </trkpt>
      <trkpt lat="42.698535" lon="1.957272">
        <ele>1674.8</ele>
        <time>2012-12-27T10:00:17Z</time>
      </trkpt>
      <trkpt lat="42.698456" lon="1.957386">
        <ele>1677.6</ele>
        <time>2012-12-27T10:00:40Z</time>
      </trkpt>
      <trkpt lat="42.698414" lon="1.957506">
        <ele>1681.0</ele>
        <time>2012-12-27T10:01:00Z</time>
      </trkpt>
      <trkpt lat="42.698323" lon="1.957611">
        <ele>1683.4</ele>
        <time>2012-12-27T10:01:17Z</time>
      </trkpt>
      <trkpt lat="42.698201" lon="1.957661">
        <ele>1686.3</ele>
        <time>2012-12-27T10:01:40Z</time>
      </trkpt>
      <trkpt lat="42.698112" lon="1.957746">
        <ele>1688.2</ele>
        <time>2012-12-27T10:01:54Z</time>
      </trkpt>
      <trkpt lat="42.698056" lon="1.957798">
        <ele>1689.7</ele>
        <time>2012-12-27T10:02:41Z</time>
      </trkpt>
      <trkpt lat="42.697988" lon="1.957878">
        <ele>1692.5</ele>
        <time>2012-12-27T10:02:54Z</time>
      </trkpt>
      <trkpt lat="42.697919" lon="1.957965">
        <ele>1695.4</ele>
        <time>2012-12-27T10:03:08Z</time>
      </trkpt>
      <trkpt lat="42.697850" lon="1.958070">
        <ele>1698.3</ele>
        <time>2012-12-27T10:03:24Z</time>
        <name>Jasse de Gabensa</name>
      </trkpt>
      <trkpt lat="42.697789" lon="1.958181">
        <ele>1701.2</ele>
        <time>2012-12-27T10:03:40Z</time>
      </trkpt>
      <trkpt lat="42.697748" lon="1.958288">
        <ele>1702.6</ele>
        <time>2012-12-27T10:03:55Z</time>
      </trkpt>
      <trkpt lat="42.697707" lon="1.958384">
        <ele>1706.5</ele>
        <time>2012-12-27T10:04:13Z</time>
      </trkpt>
      <trkpt lat="42.697678" lon="1.958494">
        <ele>1709.8</ele>
        <time>2012-12-27T10:04:35Z</time>
      </trkpt>
      <trkpt lat="42.697646" lon="1.958597">
        <ele>1712.2</ele>
        <time>2012-12-27T10:04:59Z</time>
      </trkpt>
      <trkpt lat="42.697619" lon="1.958704">
        <ele>1713.2</ele>
        <time>2012-12-27T10:05:19Z</time>
      </trkpt>
      <trkpt lat="42.697577" lon="1.958821">
        <ele>1714.2</ele>
        <time>2012-12-27T10:05:33Z</time>
      </trkpt>
      <trkpt lat="42.697518" lon="1.958940">
        <ele>1714.7</ele>
        <time>2012-12-27T10:05:56Z</time>
      </trkpt>
      <trkpt lat="42.697488" lon="1.959017">
        <ele>1715.6</ele>
        <time>2012-12-27T10:07:25Z</time>
      </trkpt>
      <trkpt lat="42.697479" lon="1.959135">
        <ele>1719.5</ele>
        <time>2012-12-27T10:07:41Z</time>
      </trkpt>
      <trkpt lat="42.697380" lon="1.959206">
        <ele>1721.4</ele>
        <time>2012-12-27T10:07:55Z</time>
      </trkpt>
      <trkpt lat="42.697298" lon="1.959283">
        <ele>1724.3</ele>
        <time>2012-12-27T10:08:09Z</time>
      </trkpt>
      <trkpt lat="42.697218" lon="1.959334">
        <ele>1726.7</ele>
        <time>2012-12-27T10:08:30Z</time>
      </trkpt>
      <trkpt lat="42.697174" lon="1.959447">
        <ele>1731.0</ele>
        <time>2012-12-27T10:08:52Z</time>
      </trkpt>
      <trkpt lat="42.697116" lon="1.959551">
        <ele>1735.3</ele>
        <time>2012-12-27T10:09:13Z</time>
      </trkpt>
      <trkpt lat="42.697075" lon="1.959642">
        <ele>1738.7</ele>
        <time>2012-12-27T10:09:42Z</time>
      </trkpt>
      <trkpt lat="42.697009" lon="1.959729">
        <ele>1743.0</ele>
        <time>2012-12-27T10:10:00Z</time>
      </trkpt>
      <trkpt lat="42.696934" lon="1.959818">
        <ele>1746.4</ele>
        <time>2012-12-27T10:10:18Z</time>
      </trkpt>
      <trkpt lat="42.696914" lon="1.959925">
        <ele>1750.2</ele>
        <time>2012-12-27T10:10:37Z</time>
      </trkpt>
      <trkpt lat="42.696921" lon="1.960001">
        <ele>1752.1</ele>
        <time>2012-12-27T10:11:53Z</time>
      </trkpt>
      <trkpt lat="42.696909" lon="1.960122">
        <ele>1755.5</ele>
        <time>2012-12-27T10:12:08Z</time>
      </trkpt>
      <trkpt lat="42.696890" lon="1.960251">
        <ele>1756.9</ele>
        <time>2012-12-27T10:12:22Z</time>
      </trkpt>
      <trkpt lat="42.696900" lon="1.960372">
        <ele>1759.3</ele>
        <time>2012-12-27T10:12:39Z</time>
      </trkpt>
      <trkpt lat="42.696884" lon="1.960493">
        <ele>1760.8</ele>
        <time>2012-12-27T10:12:55Z</time>
      </trkpt>
      <trkpt lat="42.696842" lon="1.960618">
        <ele>1761.8</ele>
        <time>2012-12-27T10:13:10Z</time>
      </trkpt>
      <trkpt lat="42.696810" lon="1.960731">
        <ele>1764.6</ele>
        <time>2012-12-27T10:13:29Z</time>
      </trkpt>
      <trkpt lat="42.696783" lon="1.960830">
        <ele>1767.5</ele>
        <time>2012-12-27T10:14:08Z</time>
      </trkpt>
      <trkpt lat="42.696679" lon="1.960924">
        <ele>1770.4</ele>
        <time>2012-12-27T10:14:23Z</time>
      </trkpt>
      <trkpt lat="42.696620" lon="1.961033">
        <ele>1772.8</ele>
        <time>2012-12-27T10:14:39Z</time>
      </trkpt>
      <trkpt lat="42.696566" lon="1.961131">
        <ele>1774.2</ele>
        <time>2012-12-27T10:14:52Z</time>
      </trkpt>
      <trkpt lat="42.696506" lon="1.961235">
        <ele>1774.7</ele>
        <time>2012-12-27T10:15:06Z</time>
      </trkpt>
      <trkpt lat="42.696438" lon="1.961326">
        <ele>1776.7</ele>
        <time>2012-12-27T10:15:22Z</time>
      </trkpt>
      <trkpt lat="42.696381" lon="1.961430">
        <ele>1780.5</ele>
        <time>2012-12-27T10:15:40Z</time>
      </trkpt>
      <trkpt lat="42.696325" lon="1.961533">
        <ele>1784.3</ele>
        <time>2012-12-27T10:15:59Z</time>
      </trkpt>
      <trkpt lat="42.696263" lon="1.961620">
        <ele>1788.2</ele>
        <time>2012-12-27T10:16:22Z</time>
      </trkpt>
      <trkpt lat="42.696174" lon="1.961668">
        <ele>1790.6</ele>
        <time>2012-12-27T10:16:38Z</time>
      </trkpt>
      <trkpt lat="42.696116" lon="1.961758">
        <ele>1794.4</ele>
        <time>2012-12-27T10:16:54Z</time>
      </trkpt>
      <trkpt lat="42.696039" lon="1.961814">
        <ele>1797.3</ele>
        <time>2012-12-27T10:17:11Z</time>
      </trkpt>
      <trkpt lat="42.695970" lon="1.961905">
        <ele>1801.2</ele>
        <time>2012-12-27T10:17:29Z</time>
      </trkpt>
      <trkpt lat="42.695866" lon="1.961933">
        <ele>1804.5</ele>
        <time>2012-12-27T10:17:54Z</time>
      </trkpt>
      <trkpt lat="42.695817" lon="1.962013">
        <ele>1809.3</ele>
        <time>2012-12-27T10:18:18Z</time>
      </trkpt>
      <trkpt lat="42.695741" lon="1.962072">
        <ele>1812.7</ele>
        <time>2012-12-27T10:18:40Z</time>
      </trkpt>
      <trkpt lat="42.695665" lon="1.962131">
        <ele>1816.6</ele>
        <time>2012-12-27T10:19:06Z</time>
      </trkpt>
      <trkpt lat="42.695634" lon="1.962211">
        <ele>1820.9</ele>
        <time>2012-12-27T10:19:35Z</time>
      </trkpt>
      <trkpt lat="42.695553" lon="1.962331">
        <ele>1823.8</ele>
        <time>2012-12-27T10:19:56Z</time>
      </trkpt>
      <trkpt lat="42.695492" lon="1.962409">
        <ele>1827.6</ele>
        <time>2012-12-27T10:20:17Z</time>
      </trkpt>
      <trkpt lat="42.695410" lon="1.962435">
        <ele>1831.4</ele>
        <time>2012-12-27T10:20:36Z</time>
      </trkpt>
      <trkpt lat="42.695323" lon="1.962483">
        <ele>1833.8</ele>
        <time>2012-12-27T10:20:52Z</time>
      </trkpt>
      <trkpt lat="42.695262" lon="1.962531">
        <ele>1837.7</ele>
        <time>2012-12-27T10:21:10Z</time>
      </trkpt>
      <trkpt lat="42.695172" lon="1.962561">
        <ele>1839.6</ele>
        <time>2012-12-27T10:21:28Z</time>
      </trkpt>
      <trkpt lat="42.695084" lon="1.962607">
        <ele>1842.5</ele>
        <time>2012-12-27T10:21:46Z</time>
      </trkpt>
      <trkpt lat="42.695002" lon="1.962558">
        <ele>1844.4</ele>
        <time>2012-12-27T10:23:06Z</time>
      </trkpt>
      <trkpt lat="42.694907" lon="1.962634">
        <ele>1846.8</ele>
        <time>2012-12-27T10:23:25Z</time>
      </trkpt>
      <trkpt lat="42.694832" lon="1.962722">
        <ele>1850.7</ele>
        <time>2012-12-27T10:23:42Z</time>
      </trkpt>
      <trkpt lat="42.694791" lon="1.962813">
        <ele>1854.0</ele>
        <time>2012-12-27T10:23:58Z</time>
      </trkpt>
      <trkpt lat="42.694716" lon="1.962889">
        <ele>1856.9</ele>
        <time>2012-12-27T10:24:15Z</time>
      </trkpt>
      <trkpt lat="42.694634" lon="1.962951">
        <ele>1859.3</ele>
        <time>2012-12-27T10:24:30Z</time>
      </trkpt>
      <trkpt lat="42.694560" lon="1.963017">
        <ele>1862.2</ele>
        <time>2012-12-27T10:24:46Z</time>
      </trkpt>
      <trkpt lat="42.694455" lon="1.963022">
        <ele>1863.7</ele>
        <time>2012-12-27T10:25:01Z</time>
      </trkpt>
      <trkpt lat="42.694403" lon="1.963051">
        <ele>1865.1</ele>
        <time>2012-12-27T10:25:40Z</time>
      </trkpt>
      <trkpt lat="42.694328" lon="1.963126">
        <ele>1865.1</ele>
        <time>2012-12-27T10:25:52Z</time>
      </trkpt>
      <trkpt lat="42.694244" lon="1.963213">
        <ele>1865.6</ele>
        <time>2012-12-27T10:26:04Z</time>
      </trkpt>
      <trkpt lat="42.694162" lon="1.963297">
        <ele>1867.0</ele>
        <time>2012-12-27T10:26:19Z</time>
      </trkpt>
      <trkpt lat="42.694076" lon="1.963331">
        <ele>1870.4</ele>
        <time>2012-12-27T10:26:34Z</time>
      </trkpt>
      <trkpt lat="42.693994" lon="1.963390">
        <ele>1874.2</ele>
        <time>2012-12-27T10:26:51Z</time>
      </trkpt>
      <trkpt lat="42.693909" lon="1.963404">
        <ele>1878.1</ele>
        <time>2012-12-27T10:27:10Z</time>
      </trkpt>
      <trkpt lat="42.693827" lon="1.963482">
        <ele>1881.9</ele>
        <time>2012-12-27T10:27:30Z</time>
      </trkpt>
      <trkpt lat="42.693743" lon="1.963474">
        <ele>1885.3</ele>
        <time>2012-12-27T10:27:45Z</time>
      </trkpt>
      <trkpt lat="42.693661" lon="1.963492">
        <ele>1887.2</ele>
        <time>2012-12-27T10:28:44Z</time>
      </trkpt>
      <trkpt lat="42.693571" lon="1.963490">
        <ele>1890.6</ele>
        <time>2012-12-27T10:28:58Z</time>
      </trkpt>
      <trkpt lat="42.693481" lon="1.963497">
        <ele>1893.0</ele>
        <time>2012-12-27T10:29:11Z</time>
      </trkpt>
      <trkpt lat="42.693406" lon="1.963574">
        <ele>1896.8</ele>
        <time>2012-12-27T10:29:26Z</time>
      </trkpt>
      <trkpt lat="42.693325" lon="1.963614">
        <ele>1899.7</ele>
        <time>2012-12-27T10:29:42Z</time>
      </trkpt>
      <trkpt lat="42.693231" lon="1.963684">
        <ele>1901.6</ele>
        <time>2012-12-27T10:29:58Z</time>
      </trkpt>
      <trkpt lat="42.693138" lon="1.963711">
        <ele>1904.5</ele>
        <time>2012-12-27T10:30:12Z</time>
      </trkpt>
      <trkpt lat="42.693059" lon="1.963754">
        <ele>1905.5</ele>
        <time>2012-12-27T10:30:24Z</time>
      </trkpt>
      <trkpt lat="42.692985" lon="1.963794">
        <ele>1906.9</ele>
        <time>2012-12-27T10:30:36Z</time>
      </trkpt>
      <trkpt lat="42.692910" lon="1.963811">
        <ele>1908.8</ele>
        <time>2012-12-27T10:36:10Z</time>
      </trkpt>
      <trkpt lat="42.692847" lon="1.963842">
        <ele>1908.8</ele>
        <time>2012-12-27T10:36:31Z</time>
      </trkpt>
      <trkpt lat="42.692845" lon="1.963839">
        <ele>1908.3</ele>
        <time>2012-12-27T10:42:11Z</time>
      </trkpt>
      <trkpt lat="42.692754" lon="1.963872">
        <ele>1908.8</ele>
        <time>2012-12-27T10:42:21Z</time>
      </trkpt>
      <trkpt lat="42.692660" lon="1.963910">
        <ele>1908.8</ele>
        <time>2012-12-27T10:42:31Z</time>
      </trkpt>
      <trkpt lat="42.692565" lon="1.963951">
        <ele>1908.8</ele>
        <time>2012-12-27T10:42:41Z</time>
      </trkpt>
      <trkpt lat="42.692482" lon="1.964014">
        <ele>1908.8</ele>
        <time>2012-12-27T10:42:51Z</time>
      </trkpt>
      <trkpt lat="42.692408" lon="1.964057">
        <ele>1908.8</ele>
        <time>2012-12-27T10:43:00Z</time>
      </trkpt>
      <trkpt lat="42.692321" lon="1.964073">
        <ele>1908.3</ele>
        <time>2012-12-27T10:43:11Z</time>
      </trkpt>
      <trkpt lat="42.692224" lon="1.964115">
        <ele>1907.9</ele>
        <time>2012-12-27T10:43:20Z</time>
      </trkpt>
      <trkpt lat="42.692132" lon="1.964142">
        <ele>1908.3</ele>
        <time>2012-12-27T10:43:30Z</time>
      </trkpt>
      <trkpt lat="42.692049" lon="1.964209">
        <ele>1908.8</ele>
        <time>2012-12-27T10:43:40Z</time>
      </trkpt>
      <trkpt lat="42.691968" lon="1.964266">
        <ele>1909.3</ele>
        <time>2012-12-27T10:43:51Z</time>
      </trkpt>
      <trkpt lat="42.691886" lon="1.964326">
        <ele>1910.3</ele>
        <time>2012-12-27T10:44:06Z</time>
      </trkpt>
      <trkpt lat="42.691812" lon="1.964409">
        <ele>1911.2</ele>
        <time>2012-12-27T10:44:18Z</time>
      </trkpt>
      <trkpt lat="42.691746" lon="1.964469">
        <ele>1912.7</ele>
        <time>2012-12-27T10:44:30Z</time>
      </trkpt>
      <trkpt lat="42.691676" lon="1.964541">
        <ele>1913.6</ele>
        <time>2012-12-27T10:44:44Z</time>
      </trkpt>
      <trkpt lat="42.691597" lon="1.964623">
        <ele>1915.1</ele>
        <time>2012-12-27T10:44:57Z</time>
      </trkpt>
      <trkpt lat="42.691518" lon="1.964682">
        <ele>1916.5</ele>
        <time>2012-12-27T10:45:11Z</time>
      </trkpt>
      <trkpt lat="42.691447" lon="1.964758">
        <ele>1917.5</ele>
        <time>2012-12-27T10:45:28Z</time>
      </trkpt>
      <trkpt lat="42.691358" lon="1.964799">
        <ele>1922.3</ele>
        <time>2012-12-27T10:45:46Z</time>
      </trkpt>
      <trkpt lat="42.691281" lon="1.964858">
        <ele>1925.7</ele>
        <time>2012-12-27T10:46:04Z</time>
      </trkpt>
      <trkpt lat="42.691204" lon="1.964921">
        <ele>1926.6</ele>
        <time>2012-12-27T10:46:22Z</time>
      </trkpt>
      <trkpt lat="42.691129" lon="1.964975">
        <ele>1929.5</ele>
        <time>2012-12-27T10:46:41Z</time>
      </trkpt>
      <trkpt lat="42.691056" lon="1.965021">
        <ele>1932.4</ele>
        <time>2012-12-27T10:46:58Z</time>
      </trkpt>
      <trkpt lat="42.690981" lon="1.965069">
        <ele>1936.2</ele>
        <time>2012-12-27T10:47:15Z</time>
      </trkpt>
      <trkpt lat="42.690908" lon="1.965120">
        <ele>1937.7</ele>
        <time>2012-12-27T10:47:31Z</time>
      </trkpt>
      <trkpt lat="42.690844" lon="1.965211">
        <ele>1941.0</ele>
        <time>2012-12-27T10:47:51Z</time>
      </trkpt>
      <trkpt lat="42.690775" lon="1.965272">
        <ele>1942.5</ele>
        <time>2012-12-27T10:48:11Z</time>
      </trkpt>
      <trkpt lat="42.690712" lon="1.965356">
        <ele>1944.4</ele>
        <time>2012-12-27T10:48:32Z</time>
      </trkpt>
      <trkpt lat="42.690652" lon="1.965438">
        <ele>1946.8</ele>
        <time>2012-12-27T10:48:51Z</time>
      </trkpt>
      <trkpt lat="42.690577" lon="1.965530">
        <ele>1949.7</ele>
        <time>2012-12-27T10:49:12Z</time>
      </trkpt>
      <trkpt lat="42.690520" lon="1.965632">
        <ele>1952.1</ele>
        <time>2012-12-27T10:49:38Z</time>
      </trkpt>
      <trkpt lat="42.690461" lon="1.965713">
        <ele>1955.5</ele>
        <time>2012-12-27T10:49:56Z</time>
      </trkpt>
      <trkpt lat="42.690405" lon="1.965814">
        <ele>1957.9</ele>
        <time>2012-12-27T10:50:14Z</time>
      </trkpt>
      <trkpt lat="42.690340" lon="1.965896">
        <ele>1959.8</ele>
        <time>2012-12-27T10:50:32Z</time>
      </trkpt>
      <trkpt lat="42.690269" lon="1.965975">
        <ele>1961.2</ele>
        <time>2012-12-27T10:50:49Z</time>
      </trkpt>
      <trkpt lat="42.690219" lon="1.966067">
        <ele>1963.2</ele>
        <time>2012-12-27T10:51:05Z</time>
      </trkpt>
      <trkpt lat="42.690164" lon="1.966155">
        <ele>1964.6</ele>
        <time>2012-12-27T10:51:20Z</time>
      </trkpt>
      <trkpt lat="42.690105" lon="1.966250">
        <ele>1965.1</ele>
        <time>2012-12-27T10:51:35Z</time>
      </trkpt>
      <trkpt lat="42.690053" lon="1.966343">
        <ele>1967.0</ele>
        <time>2012-12-27T10:51:50Z</time>
      </trkpt>
      <trkpt lat="42.690008" lon="1.966390">
        <ele>1967.5</ele>
        <time>2012-12-27T10:52:40Z</time>
      </trkpt>
      <trkpt lat="42.689948" lon="1.966478">
        <ele>1969.9</ele>
        <time>2012-12-27T10:52:50Z</time>
      </trkpt>
      <trkpt lat="42.689883" lon="1.966582">
        <ele>1972.8</ele>
        <time>2012-12-27T10:53:01Z</time>
      </trkpt>
      <trkpt lat="42.689808" lon="1.966647">
        <ele>1975.2</ele>
        <time>2012-12-27T10:53:10Z</time>
      </trkpt>
      <trkpt lat="42.689734" lon="1.966721">
        <ele>1978.1</ele>
        <time>2012-12-27T10:53:23Z</time>
      </trkpt>
      <trkpt lat="42.689653" lon="1.966784">
        <ele>1979.5</ele>
        <time>2012-12-27T10:53:39Z</time>
      </trkpt>
      <trkpt lat="42.689595" lon="1.966871">
        <ele>1983.3</ele>
        <time>2012-12-27T10:54:00Z</time>
      </trkpt>
      <trkpt lat="42.689531" lon="1.966934">
        <ele>1985.3</ele>
        <time>2012-12-27T10:54:16Z</time>
      </trkpt>
      <trkpt lat="42.689466" lon="1.967016">
        <ele>1989.1</ele>
        <time>2012-12-27T10:54:36Z</time>
      </trkpt>
      <trkpt lat="42.689415" lon="1.967097">
        <ele>1992.9</ele>
        <time>2012-12-27T10:54:55Z</time>
      </trkpt>
      <trkpt lat="42.689337" lon="1.967148">
        <ele>1995.3</ele>
        <time>2012-12-27T10:55:34Z</time>
      </trkpt>
      <trkpt lat="42.689282" lon="1.967220">
        <ele>1998.2</ele>
        <time>2012-12-27T10:55:53Z</time>
      </trkpt>
      <trkpt lat="42.689204" lon="1.967266">
        <ele>2002.1</ele>
        <time>2012-12-27T10:56:10Z</time>
      </trkpt>
      <trkpt lat="42.689130" lon="1.967300">
        <ele>2004.0</ele>
        <time>2012-12-27T10:56:29Z</time>
      </trkpt>
      <trkpt lat="42.689053" lon="1.967347">
        <ele>2007.4</ele>
        <time>2012-12-27T10:56:49Z</time>
      </trkpt>
      <trkpt lat="42.689016" lon="1.967395">
        <ele>2010.2</ele>
        <time>2012-12-27T10:58:43Z</time>
      </trkpt>
      <trkpt lat="42.688951" lon="1.967469">
        <ele>2012.7</ele>
        <time>2012-12-27T10:58:57Z</time>
      </trkpt>
      <trkpt lat="42.688901" lon="1.967567">
        <ele>2015.5</ele>
        <time>2012-12-27T10:59:13Z</time>
      </trkpt>
      <trkpt lat="42.688844" lon="1.967644">
        <ele>2018.9</ele>
        <time>2012-12-27T11:00:20Z</time>
      </trkpt>
      <trkpt lat="42.688773" lon="1.967716">
        <ele>2022.3</ele>
        <time>2012-12-27T11:00:40Z</time>
      </trkpt>
      <trkpt lat="42.688712" lon="1.967798">
        <ele>2024.2</ele>
        <time>2012-12-27T11:01:42Z</time>
      </trkpt>
      <trkpt lat="42.688649" lon="1.967878">
        <ele>2027.1</ele>
        <time>2012-12-27T11:01:58Z</time>
      </trkpt>
      <trkpt lat="42.688580" lon="1.967949">
        <ele>2030.9</ele>
        <time>2012-12-27T11:02:14Z</time>
      </trkpt>
      <trkpt lat="42.688515" lon="1.968019">
        <ele>2030.9</ele>
        <time>2012-12-27T11:02:46Z</time>
      </trkpt>
      <trkpt lat="42.688440" lon="1.968089">
        <ele>2032.8</ele>
        <time>2012-12-27T11:02:58Z</time>
      </trkpt>
      <trkpt lat="42.688374" lon="1.968155">
        <ele>2033.3</ele>
        <time>2012-12-27T11:03:09Z</time>
      </trkpt>
      <trkpt lat="42.688310" lon="1.968210">
        <ele>2036.2</ele>
        <time>2012-12-27T11:03:23Z</time>
      </trkpt>
      <trkpt lat="42.688226" lon="1.968240">
        <ele>2038.6</ele>
        <time>2012-12-27T11:03:36Z</time>
      </trkpt>
      <trkpt lat="42.688139" lon="1.968271">
        <ele>2041.0</ele>
        <time>2012-12-27T11:03:54Z</time>
      </trkpt>
      <trkpt lat="42.688070" lon="1.968307">
        <ele>2044.9</ele>
        <time>2012-12-27T11:04:17Z</time>
      </trkpt>
      <trkpt lat="42.688028" lon="1.968409">
        <ele>2048.7</ele>
        <time>2012-12-27T11:04:38Z</time>
      </trkpt>
      <trkpt lat="42.687965" lon="1.968473">
        <ele>2052.6</ele>
        <time>2012-12-27T11:05:19Z</time>
      </trkpt>
      <trkpt lat="42.687905" lon="1.968560">
        <ele>2055.4</ele>
        <time>2012-12-27T11:05:48Z</time>
      </trkpt>
      <trkpt lat="42.687841" lon="1.968668">
        <ele>2057.8</ele>
        <time>2012-12-27T11:06:04Z</time>
      </trkpt>
      <trkpt lat="42.687784" lon="1.968745">
        <ele>2059.8</ele>
        <time>2012-12-27T11:06:35Z</time>
      </trkpt>
      <trkpt lat="42.687720" lon="1.968837">
        <ele>2062.6</ele>
        <time>2012-12-27T11:06:51Z</time>
      </trkpt>
      <trkpt lat="42.687666" lon="1.968941">
        <ele>2066.0</ele>
        <time>2012-12-27T11:07:08Z</time>
      </trkpt>
      <trkpt lat="42.687615" lon="1.969038">
        <ele>2070.3</ele>
        <time>2012-12-27T11:07:24Z</time>
      </trkpt>
      <trkpt lat="42.687537" lon="1.969090">
        <ele>2074.2</ele>
        <time>2012-12-27T11:07:43Z</time>
      </trkpt>
      <trkpt lat="42.687453" lon="1.969119">
        <ele>2074.7</ele>
        <time>2012-12-27T11:07:59Z</time>
      </trkpt>
      <trkpt lat="42.687364" lon="1.969132">
        <ele>2076.1</ele>
        <time>2012-12-27T11:08:19Z</time>
      </trkpt>
      <trkpt lat="42.687279" lon="1.969096">
        <ele>2079.0</ele>
        <time>2012-12-27T11:08:38Z</time>
      </trkpt>
      <trkpt lat="42.687248" lon="1.969002">
        <ele>2083.3</ele>
        <time>2012-12-27T11:09:25Z</time>
        <name>Col 2078m</name>
      </trkpt>
      <trkpt lat="42.687256" lon="1.969011">
        <ele>2083.3</ele>
        <time>2012-12-27T11:11:37Z</time>
      </trkpt>
      <trkpt lat="42.687227" lon="1.969074">
        <ele>2082.8</ele>
        <time>2012-12-27T11:13:31Z</time>
      </trkpt>
      <trkpt lat="42.687239" lon="1.969213">
        <ele>2080.9</ele>
        <time>2012-12-27T11:13:45Z</time>
      </trkpt>
      <trkpt lat="42.687262" lon="1.969359">
        <ele>2082.8</ele>
        <time>2012-12-27T11:13:54Z</time>
      </trkpt>
      <trkpt lat="42.687254" lon="1.969487">
        <ele>2082.8</ele>
        <time>2012-12-27T11:14:12Z</time>
      </trkpt>
      <trkpt lat="42.687239" lon="1.969633">
        <ele>2087.2</ele>
        <time>2012-12-27T11:14:22Z</time>
      </trkpt>
      <trkpt lat="42.687195" lon="1.969754">
        <ele>2090.0</ele>
        <time>2012-12-27T11:14:35Z</time>
      </trkpt>
      <trkpt lat="42.687168" lon="1.969873">
        <ele>2091.5</ele>
        <time>2012-12-27T11:14:47Z</time>
      </trkpt>
      <trkpt lat="42.687173" lon="1.969983">
        <ele>2095.3</ele>
        <time>2012-12-27T11:15:02Z</time>
      </trkpt>
      <trkpt lat="42.687185" lon="1.970105">
        <ele>2100.6</ele>
        <time>2012-12-27T11:15:16Z</time>
      </trkpt>
      <trkpt lat="42.687239" lon="1.970215">
        <ele>2105.9</ele>
        <time>2012-12-27T11:15:30Z</time>
      </trkpt>
      <trkpt lat="42.687321" lon="1.970249">
        <ele>2110.2</ele>
        <time>2012-12-27T11:15:45Z</time>
      </trkpt>
      <trkpt lat="42.687315" lon="1.970354">
        <ele>2114.1</ele>
        <time>2012-12-27T11:16:00Z</time>
      </trkpt>
      <trkpt lat="42.687333" lon="1.970469">
        <ele>2117.9</ele>
        <time>2012-12-27T11:16:11Z</time>
      </trkpt>
      <trkpt lat="42.687342" lon="1.970593">
        <ele>2124.2</ele>
        <time>2012-12-27T11:16:22Z</time>
      </trkpt>
      <trkpt lat="42.687380" lon="1.970718">
        <ele>2123.7</ele>
        <time>2012-12-27T11:16:39Z</time>
      </trkpt>
      <trkpt lat="42.687399" lon="1.970838">
        <ele>2123.2</ele>
        <time>2012-12-27T11:16:48Z</time>
      </trkpt>
      <trkpt lat="42.687439" lon="1.970932">
        <ele>2128.0</ele>
        <time>2012-12-27T11:16:57Z</time>
      </trkpt>
      <trkpt lat="42.687523" lon="1.970992">
        <ele>2129.9</ele>
        <time>2012-12-27T11:17:08Z</time>
      </trkpt>
      <trkpt lat="42.687528" lon="1.971018">
        <ele>2129.9</ele>
        <time>2012-12-27T11:18:32Z</time>
        <name>Col de l Egue</name>
      </trkpt>
      <trkpt lat="42.687483" lon="1.970969">
        <ele>2124.6</ele>
        <time>2012-12-27T11:18:54Z</time>
      </trkpt>
      <trkpt lat="42.687426" lon="1.970940">
        <ele>2125.1</ele>
        <time>2012-12-27T11:19:23Z</time>
      </trkpt>
      <trkpt lat="42.687365" lon="1.970835">
        <ele>2116.0</ele>
        <time>2012-12-27T11:19:33Z</time>
      </trkpt>
      <trkpt lat="42.687277" lon="1.970774">
        <ele>2114.1</ele>
        <time>2012-12-27T11:19:43Z</time>
      </trkpt>
      <trkpt lat="42.687222" lon="1.970653">
        <ele>2111.7</ele>
        <time>2012-12-27T11:20:23Z</time>
      </trkpt>
      <trkpt lat="42.687206" lon="1.970518">
        <ele>2108.3</ele>
        <time>2012-12-27T11:20:57Z</time>
      </trkpt>
      <trkpt lat="42.687200" lon="1.970405">
        <ele>2105.4</ele>
        <time>2012-12-27T11:21:06Z</time>
      </trkpt>
      <trkpt lat="42.687126" lon="1.970320">
        <ele>2099.7</ele>
        <time>2012-12-27T11:21:15Z</time>
      </trkpt>
      <trkpt lat="42.687057" lon="1.970221">
        <ele>2092.4</ele>
        <time>2012-12-27T11:21:28Z</time>
      </trkpt>
      <trkpt lat="42.687050" lon="1.970104">
        <ele>2089.6</ele>
        <time>2012-12-27T11:21:36Z</time>
      </trkpt>
      <trkpt lat="42.687021" lon="1.970020">
        <ele>2084.8</ele>
        <time>2012-12-27T11:21:52Z</time>
      </trkpt>
      <trkpt lat="42.687000" lon="1.969901">
        <ele>2081.9</ele>
        <time>2012-12-27T11:22:05Z</time>
      </trkpt>
      <trkpt lat="42.687043" lon="1.969785">
        <ele>2081.9</ele>
        <time>2012-12-27T11:22:18Z</time>
      </trkpt>
      <trkpt lat="42.687087" lon="1.969686">
        <ele>2083.3</ele>
        <time>2012-12-27T11:22:30Z</time>
      </trkpt>
      <trkpt lat="42.687137" lon="1.969579">
        <ele>2081.9</ele>
        <time>2012-12-27T11:22:40Z</time>
      </trkpt>
      <trkpt lat="42.687190" lon="1.969480">
        <ele>2081.9</ele>
        <time>2012-12-27T11:22:49Z</time>
      </trkpt>
      <trkpt lat="42.687233" lon="1.969362">
        <ele>2079.5</ele>
        <time>2012-12-27T11:22:58Z</time>
      </trkpt>
      <trkpt lat="42.687224" lon="1.969233">
        <ele>2078.0</ele>
        <time>2012-12-27T11:23:27Z</time>
      </trkpt>
      <trkpt lat="42.687220" lon="1.969087">
        <ele>2078.0</ele>
        <time>2012-12-27T11:23:37Z</time>
      </trkpt>
      <trkpt lat="42.687244" lon="1.969013">
        <ele>2080.4</ele>
        <time>2012-12-27T11:24:32Z</time>
      </trkpt>
      <trkpt lat="42.687223" lon="1.968975">
        <ele>2080.9</ele>
        <time>2012-12-27T11:26:18Z</time>
      </trkpt>
      <trkpt lat="42.687225" lon="1.968848">
        <ele>2080.4</ele>
        <time>2012-12-27T11:26:30Z</time>
      </trkpt>
      <trkpt lat="42.687211" lon="1.968713">
        <ele>2080.9</ele>
        <time>2012-12-27T11:26:44Z</time>
      </trkpt>
      <trkpt lat="42.687222" lon="1.968606">
        <ele>2080.4</ele>
        <time>2012-12-27T11:26:58Z</time>
      </trkpt>
      <trkpt lat="42.687247" lon="1.968481">
        <ele>2080.9</ele>
        <time>2012-12-27T11:27:10Z</time>
      </trkpt>
      <trkpt lat="42.687252" lon="1.968355">
        <ele>2082.8</ele>
        <time>2012-12-27T11:27:30Z</time>
      </trkpt>
      <trkpt lat="42.687254" lon="1.968224">
        <ele>2080.4</ele>
        <time>2012-12-27T11:27:41Z</time>
      </trkpt>
      <trkpt lat="42.687296" lon="1.968099">
        <ele>2079.5</ele>
        <time>2012-12-27T11:27:51Z</time>
      </trkpt>
      <trkpt lat="42.687327" lon="1.967983">
        <ele>2080.4</ele>
        <time>2012-12-27T11:28:07Z</time>
      </trkpt>
      <trkpt lat="42.687372" lon="1.967872">
        <ele>2080.4</ele>
        <time>2012-12-27T11:28:20Z</time>
      </trkpt>
      <trkpt lat="42.687420" lon="1.967768">
        <ele>2080.9</ele>
        <time>2012-12-27T11:28:35Z</time>
      </trkpt>
      <trkpt lat="42.687428" lon="1.967647">
        <ele>2079.0</ele>
        <time>2012-12-27T11:29:00Z</time>
      </trkpt>
      <trkpt lat="42.687434" lon="1.967522">
        <ele>2074.2</ele>
        <time>2012-12-27T11:29:09Z</time>
      </trkpt>
      <trkpt lat="42.687478" lon="1.967404">
        <ele>2076.1</ele>
        <time>2012-12-27T11:29:25Z</time>
      </trkpt>
      <trkpt lat="42.687506" lon="1.967290">
        <ele>2079.5</ele>
        <time>2012-12-27T11:29:41Z</time>
      </trkpt>
      <trkpt lat="42.687549" lon="1.967204">
        <ele>2084.8</ele>
        <time>2012-12-27T11:30:09Z</time>
      </trkpt>
      <trkpt lat="42.687575" lon="1.967080">
        <ele>2085.2</ele>
        <time>2012-12-27T11:30:24Z</time>
      </trkpt>
      <trkpt lat="42.687576" lon="1.966960">
        <ele>2090.0</ele>
        <time>2012-12-27T11:30:50Z</time>
      </trkpt>
      <trkpt lat="42.687596" lon="1.966856">
        <ele>2089.6</ele>
        <time>2012-12-27T11:32:15Z</time>
      </trkpt>
      <trkpt lat="42.687665" lon="1.966790">
        <ele>2091.0</ele>
        <time>2012-12-27T11:32:43Z</time>
      </trkpt>
      <trkpt lat="42.687740" lon="1.966711">
        <ele>2087.2</ele>
        <time>2012-12-27T11:32:57Z</time>
      </trkpt>
      <trkpt lat="42.687757" lon="1.966598">
        <ele>2086.7</ele>
        <time>2012-12-27T11:33:08Z</time>
      </trkpt>
      <trkpt lat="42.687694" lon="1.966555">
        <ele>2086.2</ele>
        <time>2012-12-27T11:33:27Z</time>
      </trkpt>
      <trkpt lat="42.687735" lon="1.966458">
        <ele>2079.5</ele>
        <time>2012-12-27T11:33:56Z</time>
      </trkpt>
      <trkpt lat="42.687751" lon="1.966339">
        <ele>2076.6</ele>
        <time>2012-12-27T11:34:09Z</time>
      </trkpt>
      <trkpt lat="42.687806" lon="1.966236">
        <ele>2076.1</ele>
        <time>2012-12-27T11:35:31Z</time>
      </trkpt>
      <trkpt lat="42.687857" lon="1.966153">
        <ele>2076.6</ele>
        <time>2012-12-27T11:35:52Z</time>
      </trkpt>
      <trkpt lat="42.687902" lon="1.966035">
        <ele>2076.1</ele>
        <time>2012-12-27T11:36:05Z</time>
      </trkpt>
      <trkpt lat="42.687907" lon="1.965918">
        <ele>2073.7</ele>
        <time>2012-12-27T11:36:30Z</time>
      </trkpt>
      <trkpt lat="42.687853" lon="1.965821">
        <ele>2070.8</ele>
        <time>2012-12-27T11:36:42Z</time>
      </trkpt>
      <trkpt lat="42.687876" lon="1.965691">
        <ele>2072.3</ele>
        <time>2012-12-27T11:37:07Z</time>
      </trkpt>
      <trkpt lat="42.687881" lon="1.965547">
        <ele>2072.7</ele>
        <time>2012-12-27T11:37:22Z</time>
      </trkpt>
      <trkpt lat="42.687864" lon="1.965410">
        <ele>2072.7</ele>
        <time>2012-12-27T11:37:33Z</time>
      </trkpt>
      <trkpt lat="42.687867" lon="1.965282">
        <ele>2071.8</ele>
        <time>2012-12-27T11:37:44Z</time>
      </trkpt>
      <trkpt lat="42.687875" lon="1.965152">
        <ele>2072.7</ele>
        <time>2012-12-27T11:37:58Z</time>
      </trkpt>
      <trkpt lat="42.687897" lon="1.965027">
        <ele>2073.7</ele>
        <time>2012-12-27T11:38:11Z</time>
      </trkpt>
      <trkpt lat="42.687893" lon="1.964901">
        <ele>2073.2</ele>
        <time>2012-12-27T11:38:20Z</time>
      </trkpt>
      <trkpt lat="42.687848" lon="1.964790">
        <ele>2072.3</ele>
        <time>2012-12-27T11:38:35Z</time>
      </trkpt>
      <trkpt lat="42.687828" lon="1.964664">
        <ele>2072.3</ele>
        <time>2012-12-27T11:40:16Z</time>
      </trkpt>
      <trkpt lat="42.687812" lon="1.964541">
        <ele>2070.8</ele>
        <time>2012-12-27T11:40:28Z</time>
      </trkpt>
      <trkpt lat="42.687811" lon="1.964404">
        <ele>2073.7</ele>
        <time>2012-12-27T11:40:56Z</time>
      </trkpt>
      <trkpt lat="42.687814" lon="1.964285">
        <ele>2074.2</ele>
        <time>2012-12-27T11:41:06Z</time>
      </trkpt>
      <trkpt lat="42.687780" lon="1.964158">
        <ele>2070.8</ele>
        <time>2012-12-27T11:41:15Z</time>
      </trkpt>
      <trkpt lat="42.687741" lon="1.964037">
        <ele>2067.9</ele>
        <time>2012-12-27T11:41:24Z</time>
      </trkpt>
      <trkpt lat="42.687719" lon="1.963917">
        <ele>2065.5</ele>
        <time>2012-12-27T11:41:35Z</time>
      </trkpt>
      <trkpt lat="42.687706" lon="1.963804">
        <ele>2062.2</ele>
        <time>2012-12-27T11:41:55Z</time>
      </trkpt>
      <trkpt lat="42.687694" lon="1.963687">
        <ele>2061.7</ele>
        <time>2012-12-27T11:42:08Z</time>
      </trkpt>
      <trkpt lat="42.687705" lon="1.963564">
        <ele>2059.8</ele>
        <time>2012-12-27T11:42:19Z</time>
      </trkpt>
      <trkpt lat="42.687761" lon="1.963473">
        <ele>2058.3</ele>
        <time>2012-12-27T11:42:32Z</time>
      </trkpt>
      <trkpt lat="42.687789" lon="1.963350">
        <ele>2057.4</ele>
        <time>2012-12-27T11:42:43Z</time>
      </trkpt>
      <trkpt lat="42.687822" lon="1.963215">
        <ele>2055.9</ele>
        <time>2012-12-27T11:42:55Z</time>
      </trkpt>
      <trkpt lat="42.687862" lon="1.963090">
        <ele>2054.0</ele>
        <time>2012-12-27T11:43:05Z</time>
      </trkpt>
      <trkpt lat="42.687899" lon="1.962982">
        <ele>2051.6</ele>
        <time>2012-12-27T11:43:15Z</time>
      </trkpt>
      <trkpt lat="42.687940" lon="1.962870">
        <ele>2051.6</ele>
        <time>2012-12-27T11:43:24Z</time>
      </trkpt>
      <trkpt lat="42.687991" lon="1.962761">
        <ele>2050.6</ele>
        <time>2012-12-27T11:43:33Z</time>
      </trkpt>
      <trkpt lat="42.688024" lon="1.962651">
        <ele>2052.6</ele>
        <time>2012-12-27T11:43:45Z</time>
      </trkpt>
      <trkpt lat="42.688039" lon="1.962534">
        <ele>2051.1</ele>
        <time>2012-12-27T11:43:59Z</time>
      </trkpt>
      <trkpt lat="42.688089" lon="1.962437">
        <ele>2051.1</ele>
        <time>2012-12-27T11:44:14Z</time>
      </trkpt>
      <trkpt lat="42.688126" lon="1.962345">
        <ele>2055.0</ele>
        <time>2012-12-27T11:44:53Z</time>
      </trkpt>
      <trkpt lat="42.688172" lon="1.962283">
        <ele>2053.5</ele>
        <time>2012-12-27T11:47:24Z</time>
      </trkpt>
      <trkpt lat="42.688231" lon="1.962195">
        <ele>2054.0</ele>
        <time>2012-12-27T11:47:35Z</time>
      </trkpt>
      <trkpt lat="42.688307" lon="1.962119">
        <ele>2055.9</ele>
        <time>2012-12-27T11:47:46Z</time>
      </trkpt>
      <trkpt lat="42.688383" lon="1.962040">
        <ele>2057.4</ele>
        <time>2012-12-27T11:47:57Z</time>
      </trkpt>
      <trkpt lat="42.688456" lon="1.961953">
        <ele>2057.4</ele>
        <time>2012-12-27T11:48:08Z</time>
      </trkpt>
      <trkpt lat="42.688529" lon="1.961878">
        <ele>2059.8</ele>
        <time>2012-12-27T11:48:20Z</time>
      </trkpt>
      <trkpt lat="42.688612" lon="1.961812">
        <ele>2059.8</ele>
        <time>2012-12-27T11:48:31Z</time>
      </trkpt>
      <trkpt lat="42.688691" lon="1.961740">
        <ele>2061.7</ele>
        <time>2012-12-27T11:48:42Z</time>
      </trkpt>
      <trkpt lat="42.688748" lon="1.961656">
        <ele>2064.1</ele>
        <time>2012-12-27T11:48:52Z</time>
      </trkpt>
      <trkpt lat="42.688828" lon="1.961574">
        <ele>2064.1</ele>
        <time>2012-12-27T11:49:05Z</time>
      </trkpt>
      <trkpt lat="42.688884" lon="1.961516">
        <ele>2067.0</ele>
        <time>2012-12-27T11:49:47Z</time>
      </trkpt>
      <trkpt lat="42.688961" lon="1.961441">
        <ele>2067.4</ele>
        <time>2012-12-27T11:49:57Z</time>
      </trkpt>
      <trkpt lat="42.689033" lon="1.961358">
        <ele>2065.5</ele>
        <time>2012-12-27T11:50:06Z</time>
      </trkpt>
      <trkpt lat="42.689112" lon="1.961289">
        <ele>2069.4</ele>
        <time>2012-12-27T11:50:16Z</time>
      </trkpt>
      <trkpt lat="42.689185" lon="1.961221">
        <ele>2065.5</ele>
        <time>2012-12-27T11:50:33Z</time>
      </trkpt>
      <trkpt lat="42.689229" lon="1.961114">
        <ele>2064.1</ele>
        <time>2012-12-27T11:50:42Z</time>
      </trkpt>
      <trkpt lat="42.689285" lon="1.961004">
        <ele>2063.6</ele>
        <time>2012-12-27T11:50:53Z</time>
      </trkpt>
      <trkpt lat="42.689331" lon="1.960920">
        <ele>2059.3</ele>
        <time>2012-12-27T11:52:23Z</time>
      </trkpt>
      <trkpt lat="42.689344" lon="1.960801">
        <ele>2059.3</ele>
        <time>2012-12-27T11:52:33Z</time>
      </trkpt>
      <trkpt lat="42.689361" lon="1.960679">
        <ele>2055.0</ele>
        <time>2012-12-27T11:52:42Z</time>
        <name>Fin parcours crete</name>
      </trkpt>
      <trkpt lat="42.689397" lon="1.960556">
        <ele>2053.5</ele>
        <time>2012-12-27T11:52:52Z</time>
      </trkpt>
      <trkpt lat="42.689462" lon="1.960564">
        <ele>2052.1</ele>
        <time>2012-12-27T11:53:10Z</time>
      </trkpt>
      <trkpt lat="42.689526" lon="1.960552">
        <ele>2048.7</ele>
        <time>2012-12-27T11:53:27Z</time>
      </trkpt>
      <trkpt lat="42.689586" lon="1.960658">
        <ele>2045.3</ele>
        <time>2012-12-27T11:53:38Z</time>
      </trkpt>
      <trkpt lat="42.689628" lon="1.960769">
        <ele>2042.9</ele>
        <time>2012-12-27T11:53:48Z</time>
      </trkpt>
      <trkpt lat="42.689669" lon="1.960877">
        <ele>2041.5</ele>
        <time>2012-12-27T11:53:59Z</time>
      </trkpt>
      <trkpt lat="42.689722" lon="1.960976">
        <ele>2040.5</ele>
        <time>2012-12-27T11:54:08Z</time>
      </trkpt>
      <trkpt lat="42.689813" lon="1.961065">
        <ele>2039.1</ele>
        <time>2012-12-27T11:54:21Z</time>
      </trkpt>
      <trkpt lat="42.689856" lon="1.961189">
        <ele>2038.6</ele>
        <time>2012-12-27T11:54:30Z</time>
      </trkpt>
      <trkpt lat="42.689928" lon="1.961263">
        <ele>2035.7</ele>
        <time>2012-12-27T11:54:43Z</time>
      </trkpt>
      <trkpt lat="42.689966" lon="1.961303">
        <ele>2037.2</ele>
        <time>2012-12-27T11:55:03Z</time>
      </trkpt>
      <trkpt lat="42.690053" lon="1.961258">
        <ele>2033.3</ele>
        <time>2012-12-27T11:55:15Z</time>
      </trkpt>
      <trkpt lat="42.690128" lon="1.961202">
        <ele>2026.6</ele>
        <time>2012-12-27T11:55:29Z</time>
      </trkpt>
      <trkpt lat="42.690227" lon="1.961182">
        <ele>2026.6</ele>
        <time>2012-12-27T11:55:40Z</time>
      </trkpt>
      <trkpt lat="42.690330" lon="1.961173">
        <ele>2029.0</ele>
        <time>2012-12-27T11:55:52Z</time>
      </trkpt>
      <trkpt lat="42.690424" lon="1.961177">
        <ele>2025.6</ele>
        <time>2012-12-27T11:56:02Z</time>
      </trkpt>
      <trkpt lat="42.690505" lon="1.961149">
        <ele>2022.3</ele>
        <time>2012-12-27T11:56:34Z</time>
      </trkpt>
      <trkpt lat="42.690601" lon="1.961143">
        <ele>2025.6</ele>
        <time>2012-12-27T11:56:46Z</time>
      </trkpt>
      <trkpt lat="42.690678" lon="1.961051">
        <ele>2025.2</ele>
        <time>2012-12-27T12:00:02Z</time>
      </trkpt>
      <trkpt lat="42.690713" lon="1.960948">
        <ele>2021.8</ele>
        <time>2012-12-27T12:00:17Z</time>
      </trkpt>
      <trkpt lat="42.690779" lon="1.960900">
        <ele>2021.8</ele>
        <time>2012-12-27T12:00:57Z</time>
      </trkpt>
      <trkpt lat="42.690790" lon="1.960892">
        <ele>2021.3</ele>
        <time>2012-12-27T12:02:28Z</time>
      </trkpt>
      <trkpt lat="42.690862" lon="1.960827">
        <ele>2021.3</ele>
        <time>2012-12-27T12:02:48Z</time>
      </trkpt>
      <trkpt lat="42.690934" lon="1.960757">
        <ele>2021.3</ele>
        <time>2012-12-27T12:03:00Z</time>
      </trkpt>
      <trkpt lat="42.691010" lon="1.960671">
        <ele>2015.5</ele>
        <time>2012-12-27T12:03:15Z</time>
      </trkpt>
      <trkpt lat="42.691059" lon="1.960573">
        <ele>2014.1</ele>
        <time>2012-12-27T12:03:26Z</time>
      </trkpt>
      <trkpt lat="42.691096" lon="1.960451">
        <ele>2008.8</ele>
        <time>2012-12-27T12:03:40Z</time>
      </trkpt>
      <trkpt lat="42.691142" lon="1.960350">
        <ele>2008.3</ele>
        <time>2012-12-27T12:03:55Z</time>
      </trkpt>
      <trkpt lat="42.691147" lon="1.960213">
        <ele>2002.6</ele>
        <time>2012-12-27T12:04:06Z</time>
      </trkpt>
      <trkpt lat="42.691198" lon="1.960129">
        <ele>1998.7</ele>
        <time>2012-12-27T12:04:16Z</time>
      </trkpt>
      <trkpt lat="42.691282" lon="1.960115">
        <ele>1996.8</ele>
        <time>2012-12-27T12:04:27Z</time>
      </trkpt>
      <trkpt lat="42.691359" lon="1.960186">
        <ele>1995.3</ele>
        <time>2012-12-27T12:05:26Z</time>
      </trkpt>
      <trkpt lat="42.691446" lon="1.960236">
        <ele>1991.0</ele>
        <time>2012-12-27T12:05:36Z</time>
      </trkpt>
      <trkpt lat="42.691558" lon="1.960295">
        <ele>1986.7</ele>
        <time>2012-12-27T12:05:45Z</time>
      </trkpt>
      <trkpt lat="42.691656" lon="1.960338">
        <ele>1982.9</ele>
        <time>2012-12-27T12:05:53Z</time>
      </trkpt>
      <trkpt lat="42.691752" lon="1.960360">
        <ele>1980.0</ele>
        <time>2012-12-27T12:06:11Z</time>
      </trkpt>
      <trkpt lat="42.691858" lon="1.960378">
        <ele>1975.2</ele>
        <time>2012-12-27T12:57:01Z</time>
      </trkpt>
      <trkpt lat="42.691921" lon="1.960353">
        <ele>1973.7</ele>
        <time>2012-12-27T12:57:23Z</time>
      </trkpt>
      <trkpt lat="42.692009" lon="1.960296">
        <ele>1971.3</ele>
        <time>2012-12-27T12:57:37Z</time>
      </trkpt>
      <trkpt lat="42.692085" lon="1.960280">
        <ele>1967.5</ele>
        <time>2012-12-27T12:57:51Z</time>
      </trkpt>
      <trkpt lat="42.692175" lon="1.960274">
        <ele>1962.7</ele>
        <time>2012-12-27T12:58:08Z</time>
      </trkpt>
      <trkpt lat="42.692208" lon="1.960402">
        <ele>1959.3</ele>
        <time>2012-12-27T12:58:45Z</time>
      </trkpt>
      <trkpt lat="42.692150" lon="1.960523">
        <ele>1956.9</ele>
        <time>2012-12-27T13:00:10Z</time>
      </trkpt>
      <trkpt lat="42.692195" lon="1.960583">
        <ele>1952.1</ele>
        <time>2012-12-27T13:01:13Z</time>
      </trkpt>
      <trkpt lat="42.692275" lon="1.960621">
        <ele>1945.4</ele>
        <time>2012-12-27T13:01:31Z</time>
      </trkpt>
      <trkpt lat="42.692371" lon="1.960641">
        <ele>1936.2</ele>
        <time>2012-12-27T13:01:40Z</time>
      </trkpt>
      <trkpt lat="42.692477" lon="1.960623">
        <ele>1930.9</ele>
        <time>2012-12-27T13:01:48Z</time>
      </trkpt>
      <trkpt lat="42.692584" lon="1.960664">
        <ele>1926.6</ele>
        <time>2012-12-27T13:02:00Z</time>
      </trkpt>
      <trkpt lat="42.692654" lon="1.960757">
        <ele>1921.8</ele>
        <time>2012-12-27T13:02:13Z</time>
      </trkpt>
      <trkpt lat="42.692671" lon="1.960889">
        <ele>1920.4</ele>
        <time>2012-12-27T13:02:28Z</time>
      </trkpt>
      <trkpt lat="42.692687" lon="1.961010">
        <ele>1918.4</ele>
        <time>2012-12-27T13:02:37Z</time>
      </trkpt>
      <trkpt lat="42.692706" lon="1.961083">
        <ele>1914.1</ele>
        <time>2012-12-27T13:03:09Z</time>
      </trkpt>
      <trkpt lat="42.692801" lon="1.961102">
        <ele>1911.7</ele>
        <time>2012-12-27T13:03:18Z</time>
      </trkpt>
      <trkpt lat="42.692880" lon="1.961081">
        <ele>1908.3</ele>
        <time>2012-12-27T13:03:44Z</time>
      </trkpt>
      <trkpt lat="42.692966" lon="1.961009">
        <ele>1902.6</ele>
        <time>2012-12-27T13:03:53Z</time>
      </trkpt>
      <trkpt lat="42.693049" lon="1.960925">
        <ele>1896.8</ele>
        <time>2012-12-27T13:04:01Z</time>
      </trkpt>
      <trkpt lat="42.693156" lon="1.960877">
        <ele>1891.1</ele>
        <time>2012-12-27T13:04:10Z</time>
      </trkpt>
      <trkpt lat="42.693256" lon="1.960901">
        <ele>1885.3</ele>
        <time>2012-12-27T13:04:29Z</time>
      </trkpt>
      <trkpt lat="42.693290" lon="1.960871">
        <ele>1881.9</ele>
        <time>2012-12-27T13:06:09Z</time>
      </trkpt>
      <trkpt lat="42.693372" lon="1.960799">
        <ele>1876.6</ele>
        <time>2012-12-27T13:06:58Z</time>
      </trkpt>
      <trkpt lat="42.693448" lon="1.960789">
        <ele>1869.4</ele>
        <time>2012-12-27T13:07:21Z</time>
      </trkpt>
      <trkpt lat="42.693540" lon="1.960808">
        <ele>1864.6</ele>
        <time>2012-12-27T13:07:29Z</time>
      </trkpt>
      <trkpt lat="42.693626" lon="1.960850">
        <ele>1858.4</ele>
        <time>2012-12-27T13:07:38Z</time>
      </trkpt>
      <trkpt lat="42.693704" lon="1.960903">
        <ele>1853.6</ele>
        <time>2012-12-27T13:07:47Z</time>
      </trkpt>
      <trkpt lat="42.693792" lon="1.960894">
        <ele>1846.8</ele>
        <time>2012-12-27T13:07:58Z</time>
      </trkpt>
      <trkpt lat="42.693887" lon="1.960912">
        <ele>1841.5</ele>
        <time>2012-12-27T13:08:07Z</time>
      </trkpt>
      <trkpt lat="42.693981" lon="1.960929">
        <ele>1836.3</ele>
        <time>2012-12-27T13:08:17Z</time>
      </trkpt>
      <trkpt lat="42.694074" lon="1.960975">
        <ele>1831.9</ele>
        <time>2012-12-27T13:08:30Z</time>
      </trkpt>
      <trkpt lat="42.694081" lon="1.960959">
        <ele>1829.5</ele>
        <time>2012-12-27T13:10:15Z</time>
      </trkpt>
      <trkpt lat="42.694252" lon="1.960931">
        <ele>1821.8</ele>
        <time>2012-12-27T13:10:28Z</time>
      </trkpt>
      <trkpt lat="42.694392" lon="1.960972">
        <ele>1815.6</ele>
        <time>2012-12-27T13:10:43Z</time>
      </trkpt>
      <trkpt lat="42.694443" lon="1.960810">
        <ele>1812.2</ele>
        <time>2012-12-27T13:11:00Z</time>
      </trkpt>
      <trkpt lat="42.694575" lon="1.960769">
        <ele>1802.6</ele>
        <time>2012-12-27T13:11:15Z</time>
      </trkpt>
      <trkpt lat="42.694682" lon="1.960777">
        <ele>1794.9</ele>
        <time>2012-12-27T13:11:23Z</time>
      </trkpt>
      <trkpt lat="42.694794" lon="1.960739">
        <ele>1789.6</ele>
        <time>2012-12-27T13:11:34Z</time>
      </trkpt>
      <trkpt lat="42.694925" lon="1.960736">
        <ele>1782.9</ele>
        <time>2012-12-27T13:11:53Z</time>
      </trkpt>
      <trkpt lat="42.695044" lon="1.960683">
        <ele>1777.6</ele>
        <time>2012-12-27T13:12:45Z</time>
        <name>Cote 1773</name>
      </trkpt>
      <trkpt lat="42.695137" lon="1.960582">
        <ele>1773.8</ele>
        <time>2012-12-27T13:12:55Z</time>
      </trkpt>
      <trkpt lat="42.695250" lon="1.960544">
        <ele>1769.4</ele>
        <time>2012-12-27T13:13:05Z</time>
      </trkpt>
      <trkpt lat="42.695352" lon="1.960464">
        <ele>1765.1</ele>
        <time>2012-12-27T13:13:18Z</time>
      </trkpt>
      <trkpt lat="42.695506" lon="1.960425">
        <ele>1761.3</ele>
        <time>2012-12-27T13:13:35Z</time>
      </trkpt>
      <trkpt lat="42.695539" lon="1.960423">
        <ele>1758.9</ele>
        <time>2012-12-27T13:19:31Z</time>
      </trkpt>
      <trkpt lat="42.695640" lon="1.960426">
        <ele>1757.9</ele>
        <time>2012-12-27T13:19:44Z</time>
      </trkpt>
      <trkpt lat="42.695761" lon="1.960450">
        <ele>1754.5</ele>
        <time>2012-12-27T13:19:56Z</time>
      </trkpt>
      <trkpt lat="42.695875" lon="1.960393">
        <ele>1754.1</ele>
        <time>2012-12-27T13:20:06Z</time>
      </trkpt>
      <trkpt lat="42.695966" lon="1.960337">
        <ele>1752.1</ele>
        <time>2012-12-27T13:20:15Z</time>
      </trkpt>
      <trkpt lat="42.696061" lon="1.960269">
        <ele>1752.1</ele>
        <time>2012-12-27T13:20:25Z</time>
      </trkpt>
      <trkpt lat="42.696149" lon="1.960208">
        <ele>1752.6</ele>
        <time>2012-12-27T13:20:34Z</time>
      </trkpt>
      <trkpt lat="42.696209" lon="1.960139">
        <ele>1753.6</ele>
        <time>2012-12-27T13:20:44Z</time>
      </trkpt>
      <trkpt lat="42.696287" lon="1.960073">
        <ele>1752.1</ele>
        <time>2012-12-27T13:20:54Z</time>
      </trkpt>
      <trkpt lat="42.696355" lon="1.960000">
        <ele>1751.2</ele>
        <time>2012-12-27T13:21:03Z</time>
      </trkpt>
      <trkpt lat="42.696431" lon="1.959916">
        <ele>1749.7</ele>
        <time>2012-12-27T13:21:11Z</time>
      </trkpt>
      <trkpt lat="42.696516" lon="1.959864">
        <ele>1748.3</ele>
        <time>2012-12-27T13:21:19Z</time>
      </trkpt>
      <trkpt lat="42.696607" lon="1.959813">
        <ele>1747.3</ele>
        <time>2012-12-27T13:21:27Z</time>
      </trkpt>
      <trkpt lat="42.696700" lon="1.959760">
        <ele>1746.8</ele>
        <time>2012-12-27T13:21:35Z</time>
      </trkpt>
      <trkpt lat="42.696778" lon="1.959706">
        <ele>1746.4</ele>
        <time>2012-12-27T13:21:44Z</time>
      </trkpt>
      <trkpt lat="42.696880" lon="1.959693">
        <ele>1745.4</ele>
        <time>2012-12-27T13:21:53Z</time>
      </trkpt>
      <trkpt lat="42.696965" lon="1.959634">
        <ele>1741.6</ele>
        <time>2012-12-27T13:22:02Z</time>
      </trkpt>
      <trkpt lat="42.697042" lon="1.959563">
        <ele>1737.7</ele>
        <time>2012-12-27T13:22:12Z</time>
      </trkpt>
      <trkpt lat="42.697103" lon="1.959480">
        <ele>1734.4</ele>
        <time>2012-12-27T13:22:24Z</time>
      </trkpt>
      <trkpt lat="42.697144" lon="1.959373">
        <ele>1729.6</ele>
        <time>2012-12-27T13:22:37Z</time>
      </trkpt>
      <trkpt lat="42.697187" lon="1.959254">
        <ele>1725.7</ele>
        <time>2012-12-27T13:22:45Z</time>
      </trkpt>
      <trkpt lat="42.697246" lon="1.959154">
        <ele>1720.4</ele>
        <time>2012-12-27T13:22:53Z</time>
      </trkpt>
      <trkpt lat="42.697311" lon="1.959077">
        <ele>1717.5</ele>
        <time>2012-12-27T13:23:02Z</time>
      </trkpt>
      <trkpt lat="42.697380" lon="1.959008">
        <ele>1714.7</ele>
        <time>2012-12-27T13:23:15Z</time>
      </trkpt>
      <trkpt lat="42.697460" lon="1.958934">
        <ele>1713.7</ele>
        <time>2012-12-27T13:23:25Z</time>
      </trkpt>
      <trkpt lat="42.697543" lon="1.958833">
        <ele>1713.2</ele>
        <time>2012-12-27T13:23:40Z</time>
      </trkpt>
      <trkpt lat="42.697614" lon="1.958738">
        <ele>1713.7</ele>
        <time>2012-12-27T13:24:00Z</time>
      </trkpt>
      <trkpt lat="42.697711" lon="1.958614">
        <ele>1712.7</ele>
        <time>2012-12-27T13:24:14Z</time>
      </trkpt>
      <trkpt lat="42.697784" lon="1.958537">
        <ele>1711.3</ele>
        <time>2012-12-27T13:26:15Z</time>
      </trkpt>
      <trkpt lat="42.697778" lon="1.958538">
        <ele>1711.8</ele>
        <time>2012-12-27T13:31:11Z</time>
      </trkpt>
      <trkpt lat="42.697831" lon="1.958470">
        <ele>1709.8</ele>
        <time>2012-12-27T13:31:46Z</time>
      </trkpt>
      <trkpt lat="42.697870" lon="1.958340">
        <ele>1706.5</ele>
        <time>2012-12-27T13:32:02Z</time>
      </trkpt>
      <trkpt lat="42.697825" lon="1.958212">
        <ele>1701.7</ele>
        <time>2012-12-27T13:32:12Z</time>
      </trkpt>
      <trkpt lat="42.697853" lon="1.958095">
        <ele>1697.8</ele>
        <time>2012-12-27T13:32:29Z</time>
      </trkpt>
      <trkpt lat="42.697915" lon="1.957976">
        <ele>1695.4</ele>
        <time>2012-12-27T13:32:38Z</time>
      </trkpt>
      <trkpt lat="42.697956" lon="1.957893">
        <ele>1691.6</ele>
        <time>2012-12-27T13:33:50Z</time>
      </trkpt>
      <trkpt lat="42.698033" lon="1.957767">
        <ele>1688.7</ele>
        <time>2012-12-27T13:34:00Z</time>
      </trkpt>
      <trkpt lat="42.698108" lon="1.957668">
        <ele>1686.8</ele>
        <time>2012-12-27T13:34:09Z</time>
      </trkpt>
      <trkpt lat="42.698205" lon="1.957607">
        <ele>1683.9</ele>
        <time>2012-12-27T13:34:18Z</time>
      </trkpt>
      <trkpt lat="42.698301" lon="1.957536">
        <ele>1682.0</ele>
        <time>2012-12-27T13:34:28Z</time>
      </trkpt>
      <trkpt lat="42.698392" lon="1.957483">
        <ele>1679.6</ele>
        <time>2012-12-27T13:34:38Z</time>
      </trkpt>
      <trkpt lat="42.698454" lon="1.957354">
        <ele>1676.2</ele>
        <time>2012-12-27T13:34:49Z</time>
      </trkpt>
      <trkpt lat="42.698537" lon="1.957242">
        <ele>1672.3</ele>
        <time>2012-12-27T13:35:00Z</time>
      </trkpt>
      <trkpt lat="42.698661" lon="1.957206">
        <ele>1670.4</ele>
        <time>2012-12-27T13:35:13Z</time>
      </trkpt>
      <trkpt lat="42.698802" lon="1.957223">
        <ele>1669.9</ele>
        <time>2012-12-27T13:35:25Z</time>
      </trkpt>
      <trkpt lat="42.698923" lon="1.957207">
        <ele>1668.0</ele>
        <time>2012-12-27T13:35:36Z</time>
      </trkpt>
      <trkpt lat="42.699027" lon="1.957099">
        <ele>1665.6</ele>
        <time>2012-12-27T13:35:46Z</time>
      </trkpt>
      <trkpt lat="42.699100" lon="1.957012">
        <ele>1662.3</ele>
        <time>2012-12-27T13:35:57Z</time>
      </trkpt>
      <trkpt lat="42.699190" lon="1.956925">
        <ele>1659.8</ele>
        <time>2012-12-27T13:36:08Z</time>
      </trkpt>
      <trkpt lat="42.699274" lon="1.956841">
        <ele>1657.9</ele>
        <time>2012-12-27T13:36:18Z</time>
      </trkpt>
      <trkpt lat="42.699361" lon="1.956744">
        <ele>1655.1</ele>
        <time>2012-12-27T13:36:29Z</time>
      </trkpt>
      <trkpt lat="42.699452" lon="1.956659">
        <ele>1652.2</ele>
        <time>2012-12-27T13:36:42Z</time>
      </trkpt>
      <trkpt lat="42.699524" lon="1.956557">
        <ele>1649.3</ele>
        <time>2012-12-27T13:36:52Z</time>
      </trkpt>
      <trkpt lat="42.699593" lon="1.956463">
        <ele>1647.8</ele>
        <time>2012-12-27T13:37:00Z</time>
      </trkpt>
      <trkpt lat="42.699668" lon="1.956377">
        <ele>1646.4</ele>
        <time>2012-12-27T13:37:08Z</time>
      </trkpt>
      <trkpt lat="42.699744" lon="1.956281">
        <ele>1643.0</ele>
        <time>2012-12-27T13:37:16Z</time>
      </trkpt>
      <trkpt lat="42.699811" lon="1.956282">
        <ele>1641.1</ele>
        <time>2012-12-27T13:38:38Z</time>
      </trkpt>
      <trkpt lat="42.699875" lon="1.956156">
        <ele>1641.1</ele>
        <time>2012-12-27T13:39:27Z</time>
      </trkpt>
      <trkpt lat="42.699945" lon="1.956085">
        <ele>1639.7</ele>
        <time>2012-12-27T13:39:37Z</time>
      </trkpt>
      <trkpt lat="42.700018" lon="1.955999">
        <ele>1638.2</ele>
        <time>2012-12-27T13:39:45Z</time>
      </trkpt>
      <trkpt lat="42.700101" lon="1.955882">
        <ele>1635.8</ele>
        <time>2012-12-27T13:39:53Z</time>
      </trkpt>
      <trkpt lat="42.700175" lon="1.955768">
        <ele>1634.9</ele>
        <time>2012-12-27T13:40:01Z</time>
      </trkpt>
      <trkpt lat="42.700235" lon="1.955660">
        <ele>1632.9</ele>
        <time>2012-12-27T13:40:09Z</time>
      </trkpt>
      <trkpt lat="42.700320" lon="1.955575">
        <ele>1632.0</ele>
        <time>2012-12-27T13:40:17Z</time>
      </trkpt>
      <trkpt lat="42.700409" lon="1.955498">
        <ele>1629.6</ele>
        <time>2012-12-27T13:40:24Z</time>
      </trkpt>
      <trkpt lat="42.700489" lon="1.955418">
        <ele>1627.7</ele>
        <time>2012-12-27T13:40:33Z</time>
      </trkpt>
      <trkpt lat="42.700555" lon="1.955310">
        <ele>1624.8</ele>
        <time>2012-12-27T13:40:41Z</time>
      </trkpt>
      <trkpt lat="42.700639" lon="1.955241">
        <ele>1623.3</ele>
        <time>2012-12-27T13:40:50Z</time>
      </trkpt>
      <trkpt lat="42.700694" lon="1.955125">
        <ele>1620.0</ele>
        <time>2012-12-27T13:41:02Z</time>
      </trkpt>
      <trkpt lat="42.700802" lon="1.955003">
        <ele>1617.6</ele>
        <time>2012-12-27T13:41:19Z</time>
      </trkpt>
      <trkpt lat="42.700921" lon="1.954959">
        <ele>1613.2</ele>
        <time>2012-12-27T13:41:47Z</time>
      </trkpt>
      <trkpt lat="42.701002" lon="1.954769">
        <ele>1607.9</ele>
        <time>2012-12-27T13:42:06Z</time>
      </trkpt>
      <trkpt lat="42.701116" lon="1.954703">
        <ele>1605.5</ele>
        <time>2012-12-27T13:42:19Z</time>
      </trkpt>
      <trkpt lat="42.701224" lon="1.954665">
        <ele>1604.1</ele>
        <time>2012-12-27T13:42:30Z</time>
      </trkpt>
      <trkpt lat="42.701354" lon="1.954760">
        <ele>1604.1</ele>
        <time>2012-12-27T13:43:23Z</time>
      </trkpt>
      <trkpt lat="42.701453" lon="1.954807">
        <ele>1603.1</ele>
        <time>2012-12-27T13:43:36Z</time>
      </trkpt>
      <trkpt lat="42.701559" lon="1.954816">
        <ele>1601.2</ele>
        <time>2012-12-27T13:43:48Z</time>
      </trkpt>
      <trkpt lat="42.701658" lon="1.954815">
        <ele>1600.2</ele>
        <time>2012-12-27T13:43:58Z</time>
      </trkpt>
      <trkpt lat="42.701761" lon="1.954783">
        <ele>1599.3</ele>
        <time>2012-12-27T13:44:08Z</time>
      </trkpt>
      <trkpt lat="42.701860" lon="1.954722">
        <ele>1597.4</ele>
        <time>2012-12-27T13:44:18Z</time>
      </trkpt>
      <trkpt lat="42.701962" lon="1.954667">
        <ele>1596.9</ele>
        <time>2012-12-27T13:44:29Z</time>
      </trkpt>
      <trkpt lat="42.702052" lon="1.954593">
        <ele>1595.4</ele>
        <time>2012-12-27T13:44:42Z</time>
      </trkpt>
      <trkpt lat="42.702122" lon="1.954536">
        <ele>1592.6</ele>
        <time>2012-12-27T13:44:53Z</time>
      </trkpt>
      <trkpt lat="42.702258" lon="1.954525">
        <ele>1592.1</ele>
        <time>2012-12-27T13:45:10Z</time>
      </trkpt>
      <trkpt lat="42.702426" lon="1.954492">
        <ele>1591.1</ele>
        <time>2012-12-27T13:45:29Z</time>
      </trkpt>
      <trkpt lat="42.702554" lon="1.954394">
        <ele>1588.2</ele>
        <time>2012-12-27T13:45:48Z</time>
      </trkpt>
      <trkpt lat="42.702683" lon="1.954235">
        <ele>1584.4</ele>
        <time>2012-12-27T13:46:09Z</time>
      </trkpt>
      <trkpt lat="42.702850" lon="1.954193">
        <ele>1582.5</ele>
        <time>2012-12-27T13:46:37Z</time>
      </trkpt>
      <trkpt lat="42.702955" lon="1.954154">
        <ele>1579.1</ele>
        <time>2012-12-27T13:47:14Z</time>
      </trkpt>
      <trkpt lat="42.703097" lon="1.954139">
        <ele>1577.7</ele>
        <time>2012-12-27T13:47:28Z</time>
      </trkpt>
      <trkpt lat="42.703289" lon="1.954049">
        <ele>1577.2</ele>
        <time>2012-12-27T13:47:51Z</time>
      </trkpt>
      <trkpt lat="42.703434" lon="1.953956">
        <ele>1574.3</ele>
        <time>2012-12-27T13:48:19Z</time>
      </trkpt>
      <trkpt lat="42.703585" lon="1.953898">
        <ele>1570.9</ele>
        <time>2012-12-27T13:48:39Z</time>
      </trkpt>
      <trkpt lat="42.703726" lon="1.953772">
        <ele>1566.1</ele>
        <time>2012-12-27T13:49:01Z</time>
      </trkpt>
      <trkpt lat="42.703898" lon="1.953704">
        <ele>1562.3</ele>
        <time>2012-12-27T13:49:35Z</time>
      </trkpt>
      <trkpt lat="42.703947" lon="1.953574">
        <ele>1558.9</ele>
        <time>2012-12-27T13:49:49Z</time>
      </trkpt>
      <trkpt lat="42.703971" lon="1.953449">
        <ele>1554.1</ele>
        <time>2012-12-27T13:50:02Z</time>
      </trkpt>
      <trkpt lat="42.704105" lon="1.953299">
        <ele>1550.7</ele>
        <time>2012-12-27T13:50:29Z</time>
      </trkpt>
      <trkpt lat="42.704238" lon="1.953174">
        <ele>1548.3</ele>
        <time>2012-12-27T13:51:06Z</time>
      </trkpt>
      <trkpt lat="42.704319" lon="1.953060">
        <ele>1545.0</ele>
        <time>2012-12-27T13:51:37Z</time>
      </trkpt>
      <trkpt lat="42.704409" lon="1.952920">
        <ele>1541.6</ele>
        <time>2012-12-27T13:51:56Z</time>
      </trkpt>
      <trkpt lat="42.704503" lon="1.952764">
        <ele>1537.8</ele>
        <time>2012-12-27T13:52:15Z</time>
      </trkpt>
      <trkpt lat="42.704615" lon="1.952597">
        <ele>1534.9</ele>
        <time>2012-12-27T13:52:33Z</time>
      </trkpt>
      <trkpt lat="42.704713" lon="1.952483">
        <ele>1531.5</ele>
        <time>2012-12-27T13:52:46Z</time>
      </trkpt>
      <trkpt lat="42.704810" lon="1.952354">
        <ele>1528.6</ele>
        <time>2012-12-27T13:53:00Z</time>
      </trkpt>
      <trkpt lat="42.704936" lon="1.952277">
        <ele>1527.2</ele>
        <time>2012-12-27T13:57:45Z</time>
      </trkpt>
      <trkpt lat="42.705095" lon="1.952240">
        <ele>1521.9</ele>
        <time>2012-12-27T13:58:04Z</time>
      </trkpt>
      <trkpt lat="42.705245" lon="1.952212">
        <ele>1519.5</ele>
        <time>2012-12-27T13:58:40Z</time>
      </trkpt>
      <trkpt lat="42.705388" lon="1.952124">
        <ele>1516.6</ele>
        <time>2012-12-27T13:58:59Z</time>
      </trkpt>
      <trkpt lat="42.705477" lon="1.951932">
        <ele>1513.2</ele>
        <time>2012-12-27T13:59:16Z</time>
      </trkpt>
      <trkpt lat="42.705582" lon="1.951792">
        <ele>1511.3</ele>
        <time>2012-12-27T13:59:30Z</time>
      </trkpt>
      <trkpt lat="42.705688" lon="1.951643">
        <ele>1507.5</ele>
        <time>2012-12-27T13:59:46Z</time>
      </trkpt>
      <trkpt lat="42.705753" lon="1.951452">
        <ele>1504.1</ele>
        <time>2012-12-27T14:00:02Z</time>
      </trkpt>
      <trkpt lat="42.705853" lon="1.951291">
        <ele>1501.2</ele>
        <time>2012-12-27T14:00:18Z</time>
      </trkpt>
      <trkpt lat="42.705951" lon="1.951157">
        <ele>1498.8</ele>
        <time>2012-12-27T14:00:33Z</time>
      </trkpt>
      <trkpt lat="42.706045" lon="1.950948">
        <ele>1495.5</ele>
        <time>2012-12-27T14:00:53Z</time>
      </trkpt>
      <trkpt lat="42.706076" lon="1.950733">
        <ele>1491.6</ele>
        <time>2012-12-27T14:01:12Z</time>
      </trkpt>
      <trkpt lat="42.706116" lon="1.950550">
        <ele>1487.3</ele>
        <time>2012-12-27T14:01:27Z</time>
      </trkpt>
      <trkpt lat="42.706030" lon="1.950389">
        <ele>1484.9</ele>
        <time>2012-12-27T14:01:44Z</time>
      </trkpt>
      <trkpt lat="42.705994" lon="1.950154">
        <ele>1481.5</ele>
        <time>2012-12-27T14:02:04Z</time>
      </trkpt>
      <trkpt lat="42.706025" lon="1.949934">
        <ele>1479.1</ele>
        <time>2012-12-27T14:02:19Z</time>
      </trkpt>
      <trkpt lat="42.706086" lon="1.949689">
        <ele>1476.7</ele>
        <time>2012-12-27T14:02:43Z</time>
      </trkpt>
      <trkpt lat="42.706116" lon="1.949482">
        <ele>1474.3</ele>
        <time>2012-12-27T14:03:03Z</time>
      </trkpt>
      <trkpt lat="42.706236" lon="1.949275">
        <ele>1471.9</ele>
        <time>2012-12-27T14:03:27Z</time>
      </trkpt>
      <trkpt lat="42.706455" lon="1.949123">
        <ele>1471.4</ele>
        <time>2012-12-27T14:03:57Z</time>
      </trkpt>
      <trkpt lat="42.706626" lon="1.949093">
        <ele>1471.4</ele>
        <time>2012-12-27T14:04:20Z</time>
      </trkpt>
      <trkpt lat="42.706823" lon="1.949021">
        <ele>1467.6</ele>
        <time>2012-12-27T14:04:48Z</time>
      </trkpt>
      <trkpt lat="42.707022" lon="1.948889">
        <ele>1466.6</ele>
        <time>2012-12-27T14:05:19Z</time>
      </trkpt>
      <trkpt lat="42.707182" lon="1.948750">
        <ele>1463.3</ele>
        <time>2012-12-27T14:05:52Z</time>
      </trkpt>
      <trkpt lat="42.707316" lon="1.948660">
        <ele>1461.8</ele>
        <time>2012-12-27T14:06:21Z</time>
      </trkpt>
      <trkpt lat="42.707392" lon="1.948439">
        <ele>1460.4</ele>
        <time>2012-12-27T14:06:44Z</time>
      </trkpt>
      <trkpt lat="42.707428" lon="1.948310">
        <ele>1457.0</ele>
        <time>2012-12-27T14:06:56Z</time>
      </trkpt>
      <trkpt lat="42.707521" lon="1.948207">
        <ele>1455.6</ele>
        <time>2012-12-27T14:07:06Z</time>
      </trkpt>
      <trkpt lat="42.707629" lon="1.948215">
        <ele>1456.5</ele>
        <time>2012-12-27T14:07:20Z</time>
      </trkpt>
      <trkpt lat="42.707732" lon="1.948197">
        <ele>1456.5</ele>
        <time>2012-12-27T14:07:35Z</time>
      </trkpt>
      <trkpt lat="42.707848" lon="1.948150">
        <ele>1455.6</ele>
        <time>2012-12-27T14:07:48Z</time>
      </trkpt>
      <trkpt lat="42.707933" lon="1.948070">
        <ele>1454.1</ele>
        <time>2012-12-27T14:08:00Z</time>
      </trkpt>
      <trkpt lat="42.708057" lon="1.948035">
        <ele>1452.7</ele>
        <time>2012-12-27T14:08:15Z</time>
      </trkpt>
      <trkpt lat="42.708162" lon="1.947981">
        <ele>1450.8</ele>
        <time>2012-12-27T14:08:27Z</time>
      </trkpt>
      <trkpt lat="42.708252" lon="1.947929">
        <ele>1448.8</ele>
        <time>2012-12-27T14:08:36Z</time>
      </trkpt>
      <trkpt lat="42.708327" lon="1.947838">
        <ele>1448.4</ele>
        <time>2012-12-27T14:08:47Z</time>
      </trkpt>
      <trkpt lat="42.708393" lon="1.947735">
        <ele>1447.4</ele>
        <time>2012-12-27T14:08:58Z</time>
      </trkpt>
      <trkpt lat="42.708463" lon="1.947646">
        <ele>1446.9</ele>
        <time>2012-12-27T14:09:07Z</time>
      </trkpt>
      <trkpt lat="42.708534" lon="1.947555">
        <ele>1445.5</ele>
        <time>2012-12-27T14:09:17Z</time>
      </trkpt>
      <trkpt lat="42.708605" lon="1.947511">
        <ele>1444.0</ele>
        <time>2012-12-27T14:09:32Z</time>
      </trkpt>
      <trkpt lat="42.708681" lon="1.947408">
        <ele>1442.6</ele>
        <time>2012-12-27T14:09:42Z</time>
      </trkpt>
      <trkpt lat="42.708769" lon="1.947311">
        <ele>1440.7</ele>
        <time>2012-12-27T14:09:53Z</time>
      </trkpt>
      <trkpt lat="42.708863" lon="1.947231">
        <ele>1438.8</ele>
        <time>2012-12-27T14:10:08Z</time>
      </trkpt>
      <trkpt lat="42.708928" lon="1.947149">
        <ele>1435.4</ele>
        <time>2012-12-27T14:10:21Z</time>
      </trkpt>
      <trkpt lat="42.709045" lon="1.947097">
        <ele>1433.9</ele>
        <time>2012-12-27T14:10:37Z</time>
      </trkpt>
      <trkpt lat="42.709227" lon="1.946982">
        <ele>1431.1</ele>
        <time>2012-12-27T14:11:13Z</time>
      </trkpt>
      <trkpt lat="42.709335" lon="1.946836">
        <ele>1426.7</ele>
        <time>2012-12-27T14:11:45Z</time>
      </trkpt>
      <trkpt lat="42.709521" lon="1.946740">
        <ele>1423.4</ele>
        <time>2012-12-27T14:12:45Z</time>
      </trkpt>
      <trkpt lat="42.709616" lon="1.946590">
        <ele>1421.0</ele>
        <time>2012-12-27T14:12:56Z</time>
      </trkpt>
      <trkpt lat="42.709694" lon="1.946486">
        <ele>1419.0</ele>
        <time>2012-12-27T14:13:04Z</time>
      </trkpt>
      <trkpt lat="42.709766" lon="1.946411">
        <ele>1417.6</ele>
        <time>2012-12-27T14:13:53Z</time>
      </trkpt>
      <trkpt lat="42.709835" lon="1.946323">
        <ele>1414.7</ele>
        <time>2012-12-27T14:14:58Z</time>
      </trkpt>
      <trkpt lat="42.709891" lon="1.946214">
        <ele>1412.8</ele>
        <time>2012-12-27T14:15:11Z</time>
      </trkpt>
      <trkpt lat="42.709879" lon="1.946114">
        <ele>1410.9</ele>
        <time>2012-12-27T14:15:30Z</time>
      </trkpt>
      <trkpt lat="42.709970" lon="1.946061">
        <ele>1409.9</ele>
        <time>2012-12-27T14:15:44Z</time>
      </trkpt>
      <trkpt lat="42.710086" lon="1.946073">
        <ele>1410.4</ele>
        <time>2012-12-27T14:15:56Z</time>
      </trkpt>
      <trkpt lat="42.710192" lon="1.946078">
        <ele>1411.8</ele>
        <time>2012-12-27T14:16:09Z</time>
      </trkpt>
      <trkpt lat="42.710309" lon="1.946045">
        <ele>1413.3</ele>
        <time>2012-12-27T14:16:27Z</time>
      </trkpt>
      <trkpt lat="42.710441" lon="1.945982">
        <ele>1410.9</ele>
        <time>2012-12-27T14:17:15Z</time>
      </trkpt>
      <trkpt lat="42.710521" lon="1.945839">
        <ele>1409.9</ele>
        <time>2012-12-27T14:17:29Z</time>
      </trkpt>
      <trkpt lat="42.710589" lon="1.945736">
        <ele>1407.5</ele>
        <time>2012-12-27T14:17:40Z</time>
      </trkpt>
      <trkpt lat="42.710651" lon="1.945590">
        <ele>1406.6</ele>
        <time>2012-12-27T14:18:00Z</time>
      </trkpt>
      <trkpt lat="42.710743" lon="1.945482">
        <ele>1404.6</ele>
        <time>2012-12-27T14:18:21Z</time>
      </trkpt>
      <trkpt lat="42.710816" lon="1.945375">
        <ele>1404.1</ele>
        <time>2012-12-27T14:18:30Z</time>
      </trkpt>
      <trkpt lat="42.710802" lon="1.945426">
        <ele>1403.7</ele>
        <time>2012-12-27T14:18:48Z</time>
      </trkpt>
      <trkpt lat="42.710832" lon="1.945366">
        <ele>1405.1</ele>
        <time>2012-12-27T14:21:14Z</time>
      </trkpt>
      <trkpt lat="42.710892" lon="1.945255">
        <ele>1403.2</ele>
        <time>2012-12-27T14:21:28Z</time>
      </trkpt>
      <trkpt lat="42.710933" lon="1.945149">
        <ele>1401.7</ele>
        <time>2012-12-27T14:21:38Z</time>
      </trkpt>
      <trkpt lat="42.711003" lon="1.945036">
        <ele>1400.3</ele>
        <time>2012-12-27T14:21:49Z</time>
      </trkpt>
      <trkpt lat="42.711107" lon="1.944980">
        <ele>1397.4</ele>
        <time>2012-12-27T14:22:00Z</time>
      </trkpt>
      <trkpt lat="42.711203" lon="1.944898">
        <ele>1396.0</ele>
        <time>2012-12-27T14:22:15Z</time>
      </trkpt>
      <trkpt lat="42.711300" lon="1.944844">
        <ele>1394.1</ele>
        <time>2012-12-27T14:22:28Z</time>
      </trkpt>
      <trkpt lat="42.711383" lon="1.944769">
        <ele>1393.1</ele>
        <time>2012-12-27T14:22:37Z</time>
      </trkpt>
      <trkpt lat="42.711478" lon="1.944692">
        <ele>1391.2</ele>
        <time>2012-12-27T14:22:48Z</time>
      </trkpt>
      <trkpt lat="42.711552" lon="1.944620">
        <ele>1389.7</ele>
        <time>2012-12-27T14:22:59Z</time>
      </trkpt>
      <trkpt lat="42.711590" lon="1.944496">
        <ele>1388.3</ele>
        <time>2012-12-27T14:23:09Z</time>
      </trkpt>
      <trkpt lat="42.711648" lon="1.944381">
        <ele>1387.8</ele>
        <time>2012-12-27T14:23:19Z</time>
      </trkpt>
      <trkpt lat="42.711646" lon="1.944241">
        <ele>1386.4</ele>
        <time>2012-12-27T14:23:29Z</time>
      </trkpt>
      <trkpt lat="42.711660" lon="1.944099">
        <ele>1384.4</ele>
        <time>2012-12-27T14:23:38Z</time>
      </trkpt>
      <trkpt lat="42.711736" lon="1.943993">
        <ele>1383.0</ele>
        <time>2012-12-27T14:23:48Z</time>
      </trkpt>
      <trkpt lat="42.711817" lon="1.943913">
        <ele>1382.5</ele>
        <time>2012-12-27T14:23:58Z</time>
      </trkpt>
      <trkpt lat="42.711896" lon="1.943808">
        <ele>1382.0</ele>
        <time>2012-12-27T14:24:08Z</time>
      </trkpt>
      <trkpt lat="42.711955" lon="1.943679">
        <ele>1380.6</ele>
        <time>2012-12-27T14:24:18Z</time>
      </trkpt>
      <trkpt lat="42.712039" lon="1.943589">
        <ele>1380.6</ele>
        <time>2012-12-27T14:24:28Z</time>
      </trkpt>
      <trkpt lat="42.712114" lon="1.943523">
        <ele>1380.6</ele>
        <time>2012-12-27T14:24:39Z</time>
      </trkpt>
      <trkpt lat="42.712149" lon="1.943405">
        <ele>1379.6</ele>
        <time>2012-12-27T14:24:48Z</time>
      </trkpt>
      <trkpt lat="42.712171" lon="1.943269">
        <ele>1379.6</ele>
        <time>2012-12-27T14:24:57Z</time>
      </trkpt>
      <trkpt lat="42.712188" lon="1.943140">
        <ele>1378.7</ele>
        <time>2012-12-27T14:25:08Z</time>
      </trkpt>
      <trkpt lat="42.712234" lon="1.943009">
        <ele>1378.2</ele>
        <time>2012-12-27T14:25:22Z</time>
      </trkpt>
      <trkpt lat="42.712279" lon="1.942878">
        <ele>1377.2</ele>
        <time>2012-12-27T14:25:32Z</time>
      </trkpt>
      <trkpt lat="42.712322" lon="1.942753">
        <ele>1377.2</ele>
        <time>2012-12-27T14:25:41Z</time>
      </trkpt>
      <trkpt lat="42.712371" lon="1.942630">
        <ele>1376.3</ele>
        <time>2012-12-27T14:25:51Z</time>
      </trkpt>
      <trkpt lat="42.712443" lon="1.942518">
        <ele>1375.3</ele>
        <time>2012-12-27T14:26:01Z</time>
      </trkpt>
      <trkpt lat="42.712555" lon="1.942457">
        <ele>1374.3</ele>
        <time>2012-12-27T14:26:12Z</time>
      </trkpt>
      <trkpt lat="42.712652" lon="1.942370">
        <ele>1374.3</ele>
        <time>2012-12-27T14:26:26Z</time>
      </trkpt>
      <trkpt lat="42.712745" lon="1.942286">
        <ele>1373.4</ele>
        <time>2012-12-27T14:26:43Z</time>
      </trkpt>
      <trkpt lat="42.712825" lon="1.942187">
        <ele>1373.9</ele>
        <time>2012-12-27T14:26:55Z</time>
      </trkpt>
      <trkpt lat="42.712900" lon="1.942080">
        <ele>1373.9</ele>
        <time>2012-12-27T14:27:06Z</time>
      </trkpt>
      <trkpt lat="42.712968" lon="1.941965">
        <ele>1374.3</ele>
        <time>2012-12-27T14:27:16Z</time>
      </trkpt>
      <trkpt lat="42.713032" lon="1.941834">
        <ele>1374.3</ele>
        <time>2012-12-27T14:27:27Z</time>
      </trkpt>
      <trkpt lat="42.713101" lon="1.941703">
        <ele>1374.3</ele>
        <time>2012-12-27T14:27:39Z</time>
      </trkpt>
      <trkpt lat="42.713187" lon="1.941608">
        <ele>1373.4</ele>
        <time>2012-12-27T14:27:49Z</time>
      </trkpt>
      <trkpt lat="42.713287" lon="1.941537">
        <ele>1374.3</ele>
        <time>2012-12-27T14:28:00Z</time>
      </trkpt>
      <trkpt lat="42.713376" lon="1.941447">
        <ele>1373.4</ele>
        <time>2012-12-27T14:28:10Z</time>
      </trkpt>
      <trkpt lat="42.713474" lon="1.941361">
        <ele>1372.9</ele>
        <time>2012-12-27T14:28:21Z</time>
      </trkpt>
      <trkpt lat="42.713565" lon="1.941249">
        <ele>1372.9</ele>
        <time>2012-12-27T14:28:31Z</time>
      </trkpt>
      <trkpt lat="42.713646" lon="1.941167">
        <ele>1371.0</ele>
        <time>2012-12-27T14:28:40Z</time>
      </trkpt>
      <trkpt lat="42.713744" lon="1.941089">
        <ele>1371.5</ele>
        <time>2012-12-27T14:28:50Z</time>
      </trkpt>
      <trkpt lat="42.713847" lon="1.941011">
        <ele>1370.5</ele>
        <time>2012-12-27T14:29:00Z</time>
      </trkpt>
      <trkpt lat="42.713949" lon="1.940976">
        <ele>1369.1</ele>
        <time>2012-12-27T14:29:09Z</time>
      </trkpt>
      <trkpt lat="42.714038" lon="1.940917">
        <ele>1368.1</ele>
        <time>2012-12-27T14:29:18Z</time>
      </trkpt>
      <trkpt lat="42.714129" lon="1.940831">
        <ele>1368.1</ele>
        <time>2012-12-27T14:29:28Z</time>
      </trkpt>
      <trkpt lat="42.714208" lon="1.940716">
        <ele>1366.7</ele>
        <time>2012-12-27T14:29:37Z</time>
      </trkpt>
      <trkpt lat="42.714276" lon="1.940615">
        <ele>1365.7</ele>
        <time>2012-12-27T14:29:46Z</time>
      </trkpt>
      <trkpt lat="42.714348" lon="1.940519">
        <ele>1364.7</ele>
        <time>2012-12-27T14:29:56Z</time>
      </trkpt>
      <trkpt lat="42.714419" lon="1.940401">
        <ele>1364.2</ele>
        <time>2012-12-27T14:30:06Z</time>
      </trkpt>
      <trkpt lat="42.714491" lon="1.940281">
        <ele>1363.8</ele>
        <time>2012-12-27T14:30:15Z</time>
      </trkpt>
      <trkpt lat="42.714550" lon="1.940146">
        <ele>1362.3</ele>
        <time>2012-12-27T14:30:25Z</time>
      </trkpt>
      <trkpt lat="42.714580" lon="1.940005">
        <ele>1361.4</ele>
        <time>2012-12-27T14:30:34Z</time>
      </trkpt>
      <trkpt lat="42.714632" lon="1.939864">
        <ele>1359.4</ele>
        <time>2012-12-27T14:30:44Z</time>
      </trkpt>
      <trkpt lat="42.714663" lon="1.939743">
        <ele>1358.5</ele>
        <time>2012-12-27T14:31:11Z</time>
      </trkpt>
      <trkpt lat="42.714686" lon="1.939717">
        <ele>1358.0</ele>
        <time>2012-12-27T14:33:23Z</time>
      </trkpt>
      <trkpt lat="42.714724" lon="1.939545">
        <ele>1356.6</ele>
        <time>2012-12-27T14:33:49Z</time>
      </trkpt>
      <trkpt lat="42.714776" lon="1.939401">
        <ele>1356.1</ele>
        <time>2012-12-27T14:34:01Z</time>
      </trkpt>
      <trkpt lat="42.714828" lon="1.939270">
        <ele>1355.1</ele>
        <time>2012-12-27T14:34:11Z</time>
      </trkpt>
      <trkpt lat="42.714893" lon="1.939175">
        <ele>1354.2</ele>
        <time>2012-12-27T14:34:21Z</time>
      </trkpt>
      <trkpt lat="42.714979" lon="1.939065">
        <ele>1353.7</ele>
        <time>2012-12-27T14:34:33Z</time>
      </trkpt>
      <trkpt lat="42.715056" lon="1.938932">
        <ele>1353.2</ele>
        <time>2012-12-27T14:34:47Z</time>
      </trkpt>
      <trkpt lat="42.715105" lon="1.938803">
        <ele>1352.7</ele>
        <time>2012-12-27T14:34:58Z</time>
      </trkpt>
      <trkpt lat="42.715155" lon="1.938668">
        <ele>1353.2</ele>
        <time>2012-12-27T14:35:08Z</time>
      </trkpt>
      <trkpt lat="42.715216" lon="1.938533">
        <ele>1353.2</ele>
        <time>2012-12-27T14:35:18Z</time>
      </trkpt>
      <trkpt lat="42.715277" lon="1.938405">
        <ele>1352.2</ele>
        <time>2012-12-27T14:35:28Z</time>
      </trkpt>
      <trkpt lat="42.715342" lon="1.938248">
        <ele>1352.7</ele>
        <time>2012-12-27T14:35:41Z</time>
      </trkpt>
      <trkpt lat="42.715392" lon="1.938108">
        <ele>1352.2</ele>
        <time>2012-12-27T14:35:53Z</time>
      </trkpt>
      <trkpt lat="42.715443" lon="1.937986">
        <ele>1351.8</ele>
        <time>2012-12-27T14:36:04Z</time>
      </trkpt>
      <trkpt lat="42.715519" lon="1.937854">
        <ele>1351.8</ele>
        <time>2012-12-27T14:36:16Z</time>
      </trkpt>
      <trkpt lat="42.715590" lon="1.937743">
        <ele>1351.8</ele>
        <time>2012-12-27T14:36:27Z</time>
      </trkpt>
      <trkpt lat="42.715682" lon="1.937634">
        <ele>1351.8</ele>
        <time>2012-12-27T14:36:38Z</time>
      </trkpt>
      <trkpt lat="42.715752" lon="1.937468">
        <ele>1350.3</ele>
        <time>2012-12-27T14:36:51Z</time>
      </trkpt>
      <trkpt lat="42.715849" lon="1.937355">
        <ele>1349.8</ele>
        <time>2012-12-27T14:37:02Z</time>
      </trkpt>
      <trkpt lat="42.715926" lon="1.937253">
        <ele>1349.8</ele>
        <time>2012-12-27T14:37:17Z</time>
      </trkpt>
      <trkpt lat="42.715982" lon="1.937120">
        <ele>1348.9</ele>
        <time>2012-12-27T14:37:26Z</time>
      </trkpt>
      <trkpt lat="42.716044" lon="1.936974">
        <ele>1346.9</ele>
        <time>2012-12-27T14:37:36Z</time>
      </trkpt>
      <trkpt lat="42.716110" lon="1.936851">
        <ele>1346.5</ele>
        <time>2012-12-27T14:37:47Z</time>
      </trkpt>
      <trkpt lat="42.716184" lon="1.936707">
        <ele>1346.0</ele>
        <time>2012-12-27T14:37:58Z</time>
      </trkpt>
      <trkpt lat="42.716239" lon="1.936545">
        <ele>1345.5</ele>
        <time>2012-12-27T14:38:09Z</time>
      </trkpt>
      <trkpt lat="42.716309" lon="1.936375">
        <ele>1345.0</ele>
        <time>2012-12-27T14:38:22Z</time>
      </trkpt>
      <trkpt lat="42.716375" lon="1.936257">
        <ele>1343.1</ele>
        <time>2012-12-27T14:38:33Z</time>
      </trkpt>
      <trkpt lat="42.716465" lon="1.936123">
        <ele>1343.1</ele>
        <time>2012-12-27T14:38:44Z</time>
      </trkpt>
      <trkpt lat="42.716557" lon="1.935981">
        <ele>1342.1</ele>
        <time>2012-12-27T14:38:56Z</time>
      </trkpt>
      <trkpt lat="42.716633" lon="1.935874">
        <ele>1340.7</ele>
        <time>2012-12-27T14:39:07Z</time>
      </trkpt>
      <trkpt lat="42.716724" lon="1.935761">
        <ele>1339.2</ele>
        <time>2012-12-27T14:39:17Z</time>
      </trkpt>
      <trkpt lat="42.716795" lon="1.935655">
        <ele>1337.8</ele>
        <time>2012-12-27T14:39:26Z</time>
      </trkpt>
      <trkpt lat="42.716855" lon="1.935530">
        <ele>1337.3</ele>
        <time>2012-12-27T14:39:37Z</time>
      </trkpt>
      <trkpt lat="42.716936" lon="1.935408">
        <ele>1336.4</ele>
        <time>2012-12-27T14:39:48Z</time>
      </trkpt>
      <trkpt lat="42.716994" lon="1.935264">
        <ele>1334.9</ele>
        <time>2012-12-27T14:39:59Z</time>
      </trkpt>
      <trkpt lat="42.717052" lon="1.935117">
        <ele>1334.4</ele>
        <time>2012-12-27T14:40:11Z</time>
      </trkpt>
      <trkpt lat="42.717079" lon="1.934978">
        <ele>1333.5</ele>
        <time>2012-12-27T14:40:21Z</time>
      </trkpt>
      <trkpt lat="42.717120" lon="1.934828">
        <ele>1333.0</ele>
        <time>2012-12-27T14:40:33Z</time>
      </trkpt>
      <trkpt lat="42.717186" lon="1.934677">
        <ele>1332.5</ele>
        <time>2012-12-27T14:40:44Z</time>
      </trkpt>
      <trkpt lat="42.717260" lon="1.934552">
        <ele>1332.5</ele>
        <time>2012-12-27T14:40:56Z</time>
      </trkpt>
      <trkpt lat="42.717276" lon="1.934417">
        <ele>1330.6</ele>
        <time>2012-12-27T14:41:07Z</time>
      </trkpt>
      <trkpt lat="42.717301" lon="1.934217">
        <ele>1329.6</ele>
        <time>2012-12-27T14:41:23Z</time>
      </trkpt>
      <trkpt lat="42.717293" lon="1.933947">
        <ele>1326.8</ele>
        <time>2012-12-27T14:41:41Z</time>
      </trkpt>
      <trkpt lat="42.717305" lon="1.933751">
        <ele>1324.8</ele>
        <time>2012-12-27T14:41:52Z</time>
      </trkpt>
      <trkpt lat="42.717395" lon="1.933597">
        <ele>1324.8</ele>
        <time>2012-12-27T14:42:05Z</time>
      </trkpt>
      <trkpt lat="42.717463" lon="1.933489">
        <ele>1323.9</ele>
        <time>2012-12-27T14:42:17Z</time>
      </trkpt>
      <trkpt lat="42.717557" lon="1.933350">
        <ele>1323.4</ele>
        <time>2012-12-27T14:42:30Z</time>
      </trkpt>
      <trkpt lat="42.717633" lon="1.933201">
        <ele>1322.9</ele>
        <time>2012-12-27T14:42:42Z</time>
      </trkpt>
      <trkpt lat="42.717697" lon="1.933047">
        <ele>1322.9</ele>
        <time>2012-12-27T14:42:55Z</time>
      </trkpt>
      <trkpt lat="42.717767" lon="1.932914">
        <ele>1323.4</ele>
        <time>2012-12-27T14:43:08Z</time>
      </trkpt>
      <trkpt lat="42.717838" lon="1.932808">
        <ele>1323.4</ele>
        <time>2012-12-27T14:43:26Z</time>
      </trkpt>
      <trkpt lat="42.717935" lon="1.932708">
        <ele>1322.4</ele>
        <time>2012-12-27T14:43:39Z</time>
      </trkpt>
      <trkpt lat="42.718026" lon="1.932649">
        <ele>1323.4</ele>
        <time>2012-12-27T14:43:52Z</time>
      </trkpt>
      <trkpt lat="42.717976" lon="1.932438">
        <ele>1326.3</ele>
        <time>2012-12-27T14:46:36Z</time>
      </trkpt>
      <trkpt lat="42.718033" lon="1.932313">
        <ele>1329.6</ele>
        <time>2012-12-27T14:46:51Z</time>
      </trkpt>
      <trkpt lat="42.718103" lon="1.932202">
        <ele>1332.5</ele>
        <time>2012-12-27T14:47:09Z</time>
      </trkpt>
      <trkpt lat="42.718174" lon="1.932111">
        <ele>1335.9</ele>
        <time>2012-12-27T14:47:28Z</time>
      </trkpt>
      <trkpt lat="42.718262" lon="1.932099">
        <ele>1338.8</ele>
        <time>2012-12-27T14:47:43Z</time>
      </trkpt>
      <trkpt lat="42.718332" lon="1.931998">
        <ele>1340.2</ele>
        <time>2012-12-27T14:47:55Z</time>
      </trkpt>
      <trkpt lat="42.718388" lon="1.931885">
        <ele>1340.2</ele>
        <time>2012-12-27T14:48:08Z</time>
      </trkpt>
    </trkseg>
  </trk>
</gpx>

